<?xml version="1.0" encoding="UTF-8" standalone="no" ?>
<gpx xmlns="http://www.topografix.com/GPX/1/1" xmlns:xsi="http://www.w3.org/2001/XMLSchema-instance" xsi:schemaLocation="http://www.topografix.com/GPX/1/1 http://www.topografix.com/GPX/1/1/gpx.xsd" version="1.1" creator="VisuGPX - https://www.visugpx.com">
  <metadata>
    <name>Sottevast (50260)</name>
    <desc><![CDATA[Randonnée du lundi 3 novembre 2014 - Départ du parking du rond-point de la Laiterie]]></desc>
  </metadata>
  <trk>
    <name><![CDATA[Sottevast 2014 11 03]]></name>
    <trkseg>
      <trkpt lat="49.5271" lon="-1.59288">
        <ele>78.568283</ele>
        <time>2014-11-03T13:12:44Z</time>
      </trkpt>
      <trkpt lat="49.5271" lon="-1.59288">
        <ele>79.065338</ele>
        <time>2014-11-03T13:12:45Z</time>
      </trkpt>
      <trkpt lat="49.52709" lon="-1.59273">
        <ele>77.971451</ele>
        <time>2014-11-03T13:14:38Z</time>
      </trkpt>
      <trkpt lat="49.52699" lon="-1.59273">
        <ele>77.6</ele>
        <time>2014-11-03T13:16:54Z</time>
      </trkpt>
      <trkpt lat="49.52696" lon="-1.59259">
        <ele>78.1</ele>
        <time>2014-11-03T13:17:06Z</time>
      </trkpt>
      <trkpt lat="49.52688" lon="-1.59263">
        <ele>77.5</ele>
        <time>2014-11-03T13:19:06Z</time>
      </trkpt>
      <trkpt lat="49.52679" lon="-1.5927">
        <ele>76.5</ele>
        <time>2014-11-03T13:19:19Z</time>
      </trkpt>
      <trkpt lat="49.52671" lon="-1.59278">
        <ele>75.5</ele>
        <time>2014-11-03T13:19:28Z</time>
      </trkpt>
      <trkpt lat="49.52662" lon="-1.59281">
        <ele>74.1</ele>
        <time>2014-11-03T13:19:37Z</time>
      </trkpt>
      <trkpt lat="49.52653" lon="-1.59279">
        <ele>73.4</ele>
        <time>2014-11-03T13:19:46Z</time>
      </trkpt>
      <trkpt lat="49.52645" lon="-1.59285">
        <ele>73</ele>
        <time>2014-11-03T13:19:53Z</time>
      </trkpt>
      <trkpt lat="49.52638" lon="-1.59295">
        <ele>73</ele>
        <time>2014-11-03T13:20:00Z</time>
      </trkpt>
      <trkpt lat="49.5263" lon="-1.59302">
        <ele>72.6</ele>
        <time>2014-11-03T13:20:07Z</time>
      </trkpt>
      <trkpt lat="49.52621" lon="-1.59304">
        <ele>71.9</ele>
        <time>2014-11-03T13:20:16Z</time>
      </trkpt>
      <trkpt lat="49.52612" lon="-1.59309">
        <ele>71.6</ele>
        <time>2014-11-03T13:20:25Z</time>
      </trkpt>
      <trkpt lat="49.52603" lon="-1.59311">
        <ele>71.7</ele>
        <time>2014-11-03T13:20:34Z</time>
      </trkpt>
      <trkpt lat="49.52594" lon="-1.59313">
        <ele>70.9</ele>
        <time>2014-11-03T13:20:41Z</time>
      </trkpt>
      <trkpt lat="49.52584" lon="-1.59314">
        <ele>71.4</ele>
        <time>2014-11-03T13:20:51Z</time>
      </trkpt>
      <trkpt lat="49.52575" lon="-1.59307">
        <ele>70.7</ele>
        <time>2014-11-03T13:21:02Z</time>
      </trkpt>
      <trkpt lat="49.52566" lon="-1.59305">
        <ele>70.4</ele>
        <time>2014-11-03T13:21:09Z</time>
      </trkpt>
      <trkpt lat="49.52558" lon="-1.59299">
        <ele>71</ele>
        <time>2014-11-03T13:21:17Z</time>
      </trkpt>
      <trkpt lat="49.52551" lon="-1.59289">
        <ele>71</ele>
        <time>2014-11-03T13:21:26Z</time>
      </trkpt>
      <trkpt lat="49.52547" lon="-1.59277">
        <ele>71</ele>
        <time>2014-11-03T13:21:34Z</time>
      </trkpt>
      <trkpt lat="49.52541" lon="-1.59265">
        <ele>71.2</ele>
        <time>2014-11-03T13:21:42Z</time>
      </trkpt>
      <trkpt lat="49.52535" lon="-1.59254">
        <ele>71</ele>
        <time>2014-11-03T13:21:50Z</time>
      </trkpt>
      <trkpt lat="49.5253" lon="-1.59241">
        <ele>71.8</ele>
        <time>2014-11-03T13:21:58Z</time>
      </trkpt>
      <trkpt lat="49.52523" lon="-1.59232">
        <ele>71.4</ele>
        <time>2014-11-03T13:22:05Z</time>
      </trkpt>
      <trkpt lat="49.52515" lon="-1.59222">
        <ele>71.5</ele>
        <time>2014-11-03T13:22:13Z</time>
      </trkpt>
      <trkpt lat="49.52509" lon="-1.59212">
        <ele>72</ele>
        <time>2014-11-03T13:22:21Z</time>
      </trkpt>
      <trkpt lat="49.52503" lon="-1.59199">
        <ele>73.3</ele>
        <time>2014-11-03T13:22:30Z</time>
      </trkpt>
      <trkpt lat="49.52497" lon="-1.59188">
        <ele>73.1</ele>
        <time>2014-11-03T13:22:36Z</time>
      </trkpt>
      <trkpt lat="49.52491" lon="-1.59176">
        <ele>74.2</ele>
        <time>2014-11-03T13:22:46Z</time>
      </trkpt>
      <trkpt lat="49.52484" lon="-1.59166">
        <ele>74.6</ele>
        <time>2014-11-03T13:22:54Z</time>
      </trkpt>
      <trkpt lat="49.52476" lon="-1.59158">
        <ele>75.4</ele>
        <time>2014-11-03T13:23:03Z</time>
      </trkpt>
      <trkpt lat="49.52467" lon="-1.59153">
        <ele>76.5</ele>
        <time>2014-11-03T13:23:12Z</time>
      </trkpt>
      <trkpt lat="49.52459" lon="-1.59147">
        <ele>76.6</ele>
        <time>2014-11-03T13:23:21Z</time>
      </trkpt>
      <trkpt lat="49.5245" lon="-1.59141">
        <ele>76.5</ele>
        <time>2014-11-03T13:23:31Z</time>
      </trkpt>
      <trkpt lat="49.5244" lon="-1.59137">
        <ele>77.9</ele>
        <time>2014-11-03T13:23:39Z</time>
      </trkpt>
      <trkpt lat="49.52432" lon="-1.59131">
        <ele>77.9</ele>
        <time>2014-11-03T13:23:47Z</time>
      </trkpt>
      <trkpt lat="49.52423" lon="-1.59126">
        <ele>77.9</ele>
        <time>2014-11-03T13:23:55Z</time>
      </trkpt>
      <trkpt lat="49.52414" lon="-1.59122">
        <ele>78.4</ele>
        <time>2014-11-03T13:24:04Z</time>
      </trkpt>
      <trkpt lat="49.52405" lon="-1.59117">
        <ele>78.3</ele>
        <time>2014-11-03T13:24:12Z</time>
      </trkpt>
      <trkpt lat="49.52396" lon="-1.59113">
        <ele>77.7</ele>
        <time>2014-11-03T13:24:22Z</time>
      </trkpt>
      <trkpt lat="49.52387" lon="-1.59109">
        <ele>77.9</ele>
        <time>2014-11-03T13:24:32Z</time>
      </trkpt>
      <trkpt lat="49.52377" lon="-1.59105">
        <ele>77.5</ele>
        <time>2014-11-03T13:24:40Z</time>
      </trkpt>
      <trkpt lat="49.52368" lon="-1.59102">
        <ele>76.7</ele>
        <time>2014-11-03T13:24:47Z</time>
      </trkpt>
      <trkpt lat="49.52358" lon="-1.59099">
        <ele>77</ele>
        <time>2014-11-03T13:24:54Z</time>
      </trkpt>
      <trkpt lat="49.52349" lon="-1.59096">
        <ele>76.5</ele>
        <time>2014-11-03T13:25:01Z</time>
      </trkpt>
      <trkpt lat="49.52339" lon="-1.59093">
        <ele>76.1</ele>
        <time>2014-11-03T13:25:09Z</time>
      </trkpt>
      <trkpt lat="49.5233" lon="-1.59091">
        <ele>75.7</ele>
        <time>2014-11-03T13:25:14Z</time>
      </trkpt>
      <trkpt lat="49.5232" lon="-1.5909">
        <ele>75.3</ele>
        <time>2014-11-03T13:25:21Z</time>
      </trkpt>
      <trkpt lat="49.52311" lon="-1.59092">
        <ele>74.8</ele>
        <time>2014-11-03T13:25:27Z</time>
      </trkpt>
      <trkpt lat="49.52302" lon="-1.59097">
        <ele>74</ele>
        <time>2014-11-03T13:25:35Z</time>
      </trkpt>
      <trkpt lat="49.52303" lon="-1.59112">
        <ele>72.2</ele>
        <time>2014-11-03T13:25:46Z</time>
      </trkpt>
      <trkpt lat="49.52308" lon="-1.59124">
        <ele>72.2</ele>
        <time>2014-11-03T13:25:52Z</time>
      </trkpt>
      <trkpt lat="49.52313" lon="-1.59136">
        <ele>71.9</ele>
        <time>2014-11-03T13:25:59Z</time>
      </trkpt>
      <trkpt lat="49.52307" lon="-1.59149">
        <ele>70</ele>
        <time>2014-11-03T13:26:16Z</time>
      </trkpt>
      <trkpt lat="49.52303" lon="-1.59163">
        <ele>69.6</ele>
        <time>2014-11-03T13:26:21Z</time>
      </trkpt>
      <trkpt lat="49.52298" lon="-1.59177">
        <ele>68.9</ele>
        <time>2014-11-03T13:26:30Z</time>
      </trkpt>
      <trkpt lat="49.52292" lon="-1.59187">
        <ele>70.5</ele>
        <time>2014-11-03T13:26:36Z</time>
      </trkpt>
      <trkpt lat="49.52284" lon="-1.59198">
        <ele>70.6</ele>
        <time>2014-11-03T13:26:43Z</time>
      </trkpt>
      <trkpt lat="49.52276" lon="-1.59207">
        <ele>71.3</ele>
        <time>2014-11-03T13:26:49Z</time>
      </trkpt>
      <trkpt lat="49.52269" lon="-1.59218">
        <ele>71.6</ele>
        <time>2014-11-03T13:26:57Z</time>
      </trkpt>
      <trkpt lat="49.52264" lon="-1.59231">
        <ele>71.5</ele>
        <time>2014-11-03T13:27:10Z</time>
      </trkpt>
      <trkpt lat="49.52258" lon="-1.59241">
        <ele>71.3</ele>
        <time>2014-11-03T13:27:17Z</time>
      </trkpt>
      <trkpt lat="49.52254" lon="-1.59254">
        <ele>71.2</ele>
        <time>2014-11-03T13:27:25Z</time>
      </trkpt>
      <trkpt lat="49.52252" lon="-1.59269">
        <ele>71.1</ele>
        <time>2014-11-03T13:27:33Z</time>
      </trkpt>
      <trkpt lat="49.52248" lon="-1.59283">
        <ele>71.5</ele>
        <time>2014-11-03T13:27:39Z</time>
      </trkpt>
      <trkpt lat="49.52245" lon="-1.59297">
        <ele>71.4</ele>
        <time>2014-11-03T13:27:47Z</time>
      </trkpt>
      <trkpt lat="49.52239" lon="-1.59309">
        <ele>71.5</ele>
        <time>2014-11-03T13:27:56Z</time>
      </trkpt>
      <trkpt lat="49.5223" lon="-1.59311">
        <ele>72.4</ele>
        <time>2014-11-03T13:28:03Z</time>
      </trkpt>
      <trkpt lat="49.5222" lon="-1.59311">
        <ele>72</ele>
        <time>2014-11-03T13:28:09Z</time>
      </trkpt>
      <trkpt lat="49.5221" lon="-1.59309">
        <ele>72.2</ele>
        <time>2014-11-03T13:28:16Z</time>
      </trkpt>
      <trkpt lat="49.52201" lon="-1.59306">
        <ele>71.9</ele>
        <time>2014-11-03T13:28:23Z</time>
      </trkpt>
      <trkpt lat="49.52192" lon="-1.59302">
        <ele>71.9</ele>
        <time>2014-11-03T13:28:32Z</time>
      </trkpt>
      <trkpt lat="49.52182" lon="-1.59301">
        <ele>72.1</ele>
        <time>2014-11-03T13:28:40Z</time>
      </trkpt>
      <trkpt lat="49.52173" lon="-1.59298">
        <ele>72.6</ele>
        <time>2014-11-03T13:28:48Z</time>
      </trkpt>
      <trkpt lat="49.52164" lon="-1.59295">
        <ele>72.9</ele>
        <time>2014-11-03T13:28:56Z</time>
      </trkpt>
      <trkpt lat="49.52154" lon="-1.59294">
        <ele>72.8</ele>
        <time>2014-11-03T13:29:03Z</time>
      </trkpt>
      <trkpt lat="49.52145" lon="-1.5929">
        <ele>73.1</ele>
        <time>2014-11-03T13:29:10Z</time>
      </trkpt>
      <trkpt lat="49.52136" lon="-1.59286">
        <ele>73.6</ele>
        <time>2014-11-03T13:29:19Z</time>
      </trkpt>
      <trkpt lat="49.52126" lon="-1.59283">
        <ele>73.9</ele>
        <time>2014-11-03T13:29:28Z</time>
      </trkpt>
      <trkpt lat="49.52116" lon="-1.59278">
        <ele>74.4</ele>
        <time>2014-11-03T13:29:37Z</time>
      </trkpt>
      <trkpt lat="49.52107" lon="-1.59273">
        <ele>75</ele>
        <time>2014-11-03T13:29:45Z</time>
      </trkpt>
      <trkpt lat="49.52097" lon="-1.59272">
        <ele>74.9</ele>
        <time>2014-11-03T13:29:54Z</time>
      </trkpt>
      <trkpt lat="49.52093" lon="-1.59286">
        <ele>75.4</ele>
        <time>2014-11-03T13:30:03Z</time>
      </trkpt>
      <trkpt lat="49.52093" lon="-1.59301">
        <ele>75.5</ele>
        <time>2014-11-03T13:30:11Z</time>
      </trkpt>
      <trkpt lat="49.52093" lon="-1.59315">
        <ele>75.3</ele>
        <time>2014-11-03T13:30:18Z</time>
      </trkpt>
      <trkpt lat="49.52092" lon="-1.59329">
        <ele>75.4</ele>
        <time>2014-11-03T13:30:27Z</time>
      </trkpt>
      <trkpt lat="49.52089" lon="-1.59342">
        <ele>76</ele>
        <time>2014-11-03T13:30:34Z</time>
      </trkpt>
      <trkpt lat="49.52086" lon="-1.59356">
        <ele>75.7</ele>
        <time>2014-11-03T13:30:40Z</time>
      </trkpt>
      <trkpt lat="49.52085" lon="-1.5937">
        <ele>76.2</ele>
        <time>2014-11-03T13:30:50Z</time>
      </trkpt>
      <trkpt lat="49.52079" lon="-1.59384">
        <ele>76.7</ele>
        <time>2014-11-03T13:30:57Z</time>
      </trkpt>
      <trkpt lat="49.52076" lon="-1.59399">
        <ele>77.5</ele>
        <time>2014-11-03T13:31:05Z</time>
      </trkpt>
      <trkpt lat="49.52069" lon="-1.59412">
        <ele>77.9</ele>
        <time>2014-11-03T13:31:13Z</time>
      </trkpt>
      <trkpt lat="49.52064" lon="-1.59423">
        <ele>78.9</ele>
        <time>2014-11-03T13:31:22Z</time>
      </trkpt>
      <trkpt lat="49.52061" lon="-1.59436">
        <ele>79.7</ele>
        <time>2014-11-03T13:31:32Z</time>
      </trkpt>
      <trkpt lat="49.52059" lon="-1.59451">
        <ele>79.4</ele>
        <time>2014-11-03T13:31:45Z</time>
      </trkpt>
      <trkpt lat="49.52057" lon="-1.59466">
        <ele>78.5</ele>
        <time>2014-11-03T13:31:55Z</time>
      </trkpt>
      <trkpt lat="49.52055" lon="-1.5948">
        <ele>77.6</ele>
        <time>2014-11-03T13:32:03Z</time>
      </trkpt>
      <trkpt lat="49.52051" lon="-1.59492">
        <ele>76.6</ele>
        <time>2014-11-03T13:32:13Z</time>
      </trkpt>
      <trkpt lat="49.52051" lon="-1.59507">
        <ele>75.3</ele>
        <time>2014-11-03T13:32:24Z</time>
      </trkpt>
      <trkpt lat="49.52049" lon="-1.59521">
        <ele>73.8</ele>
        <time>2014-11-03T13:32:32Z</time>
      </trkpt>
      <trkpt lat="49.52047" lon="-1.59536">
        <ele>73.1</ele>
        <time>2014-11-03T13:32:39Z</time>
      </trkpt>
      <trkpt lat="49.52041" lon="-1.59546">
        <ele>73.2</ele>
        <time>2014-11-03T13:32:55Z</time>
      </trkpt>
      <trkpt lat="49.52033" lon="-1.59554">
        <ele>72.6</ele>
        <time>2014-11-03T13:33:05Z</time>
      </trkpt>
      <trkpt lat="49.52025" lon="-1.59564">
        <ele>72.9</ele>
        <time>2014-11-03T13:33:13Z</time>
      </trkpt>
      <trkpt lat="49.52018" lon="-1.59574">
        <ele>72.9</ele>
        <time>2014-11-03T13:33:20Z</time>
      </trkpt>
      <trkpt lat="49.5201" lon="-1.59583">
        <ele>73.6</ele>
        <time>2014-11-03T13:33:30Z</time>
      </trkpt>
      <trkpt lat="49.52003" lon="-1.59593">
        <ele>73.9</ele>
        <time>2014-11-03T13:33:40Z</time>
      </trkpt>
      <trkpt lat="49.51996" lon="-1.59603">
        <ele>74.4</ele>
        <time>2014-11-03T13:33:50Z</time>
      </trkpt>
      <trkpt lat="49.51987" lon="-1.59611">
        <ele>75.1</ele>
        <time>2014-11-03T13:33:57Z</time>
      </trkpt>
      <trkpt lat="49.5198" lon="-1.5962">
        <ele>76.3</ele>
        <time>2014-11-03T13:34:05Z</time>
      </trkpt>
      <trkpt lat="49.51972" lon="-1.59626">
        <ele>76.8</ele>
        <time>2014-11-03T13:34:11Z</time>
      </trkpt>
      <trkpt lat="49.51963" lon="-1.59632">
        <ele>77.7</ele>
        <time>2014-11-03T13:34:20Z</time>
      </trkpt>
      <trkpt lat="49.51954" lon="-1.59636">
        <ele>78.9</ele>
        <time>2014-11-03T13:34:30Z</time>
      </trkpt>
      <trkpt lat="49.51945" lon="-1.59632">
        <ele>80.3</ele>
        <time>2014-11-03T13:34:42Z</time>
      </trkpt>
      <trkpt lat="49.51935" lon="-1.5963">
        <ele>81.1</ele>
        <time>2014-11-03T13:34:51Z</time>
      </trkpt>
      <trkpt lat="49.51925" lon="-1.59629">
        <ele>83.2</ele>
        <time>2014-11-03T13:35:02Z</time>
      </trkpt>
      <trkpt lat="49.51915" lon="-1.59629">
        <ele>84.5</ele>
        <time>2014-11-03T13:35:08Z</time>
      </trkpt>
      <trkpt lat="49.51906" lon="-1.59633">
        <ele>84.7</ele>
        <time>2014-11-03T13:35:16Z</time>
      </trkpt>
      <trkpt lat="49.51897" lon="-1.59639">
        <ele>84.2</ele>
        <time>2014-11-03T13:35:23Z</time>
      </trkpt>
      <trkpt lat="49.51888" lon="-1.59646">
        <ele>84.7</ele>
        <time>2014-11-03T13:35:29Z</time>
      </trkpt>
      <trkpt lat="49.51879" lon="-1.59651">
        <ele>84.5</ele>
        <time>2014-11-03T13:35:36Z</time>
      </trkpt>
      <trkpt lat="49.5187" lon="-1.59656">
        <ele>84.2</ele>
        <time>2014-11-03T13:35:42Z</time>
      </trkpt>
      <trkpt lat="49.51861" lon="-1.59662">
        <ele>84.2</ele>
        <time>2014-11-03T13:35:49Z</time>
      </trkpt>
      <trkpt lat="49.51853" lon="-1.59669">
        <ele>84.1</ele>
        <time>2014-11-03T13:35:55Z</time>
      </trkpt>
      <trkpt lat="49.51844" lon="-1.59675">
        <ele>83.4</ele>
        <time>2014-11-03T13:36:03Z</time>
      </trkpt>
      <trkpt lat="49.51837" lon="-1.59684">
        <ele>83.3</ele>
        <time>2014-11-03T13:36:11Z</time>
      </trkpt>
      <trkpt lat="49.51828" lon="-1.5969">
        <ele>83.2</ele>
        <time>2014-11-03T13:36:18Z</time>
      </trkpt>
      <trkpt lat="49.5182" lon="-1.59695">
        <ele>83</ele>
        <time>2014-11-03T13:36:24Z</time>
      </trkpt>
      <trkpt lat="49.51811" lon="-1.59701">
        <ele>83.2</ele>
        <time>2014-11-03T13:36:30Z</time>
      </trkpt>
      <trkpt lat="49.51802" lon="-1.59707">
        <ele>83.3</ele>
        <time>2014-11-03T13:36:36Z</time>
      </trkpt>
      <trkpt lat="49.51794" lon="-1.59715">
        <ele>83.6</ele>
        <time>2014-11-03T13:36:43Z</time>
      </trkpt>
      <trkpt lat="49.51786" lon="-1.59724">
        <ele>83.2</ele>
        <time>2014-11-03T13:36:50Z</time>
      </trkpt>
      <trkpt lat="49.51779" lon="-1.59735">
        <ele>82.1</ele>
        <time>2014-11-03T13:36:57Z</time>
      </trkpt>
      <trkpt lat="49.51771" lon="-1.59743">
        <ele>82.6</ele>
        <time>2014-11-03T13:37:05Z</time>
      </trkpt>
      <trkpt lat="49.51763" lon="-1.59751">
        <ele>83.1</ele>
        <time>2014-11-03T13:37:13Z</time>
      </trkpt>
      <trkpt lat="49.51754" lon="-1.59757">
        <ele>83</ele>
        <time>2014-11-03T13:37:19Z</time>
      </trkpt>
      <trkpt lat="49.51745" lon="-1.59764">
        <ele>83.4</ele>
        <time>2014-11-03T13:37:26Z</time>
      </trkpt>
      <trkpt lat="49.51738" lon="-1.59775">
        <ele>83.4</ele>
        <time>2014-11-03T13:37:33Z</time>
      </trkpt>
      <trkpt lat="49.5173" lon="-1.59784">
        <ele>84</ele>
        <time>2014-11-03T13:37:40Z</time>
      </trkpt>
      <trkpt lat="49.51724" lon="-1.59794">
        <ele>84.5</ele>
        <time>2014-11-03T13:37:47Z</time>
      </trkpt>
      <trkpt lat="49.51716" lon="-1.59805">
        <ele>84.9</ele>
        <time>2014-11-03T13:37:53Z</time>
      </trkpt>
      <trkpt lat="49.51709" lon="-1.59813">
        <ele>84.9</ele>
        <time>2014-11-03T13:37:59Z</time>
      </trkpt>
      <trkpt lat="49.51702" lon="-1.59823">
        <ele>85.1</ele>
        <time>2014-11-03T13:38:06Z</time>
      </trkpt>
      <trkpt lat="49.51694" lon="-1.59834">
        <ele>84.8</ele>
        <time>2014-11-03T13:38:13Z</time>
      </trkpt>
      <trkpt lat="49.51687" lon="-1.59845">
        <ele>84.2</ele>
        <time>2014-11-03T13:38:20Z</time>
      </trkpt>
      <trkpt lat="49.51683" lon="-1.59859">
        <ele>84.8</ele>
        <time>2014-11-03T13:38:28Z</time>
      </trkpt>
      <trkpt lat="49.51675" lon="-1.5987">
        <ele>83.9</ele>
        <time>2014-11-03T13:38:35Z</time>
      </trkpt>
      <trkpt lat="49.51667" lon="-1.59879">
        <ele>83.5</ele>
        <time>2014-11-03T13:38:42Z</time>
      </trkpt>
      <trkpt lat="49.51661" lon="-1.59891">
        <ele>83.4</ele>
        <time>2014-11-03T13:38:53Z</time>
      </trkpt>
      <trkpt lat="49.51652" lon="-1.59896">
        <ele>83.4</ele>
        <time>2014-11-03T13:39:21Z</time>
      </trkpt>
      <trkpt lat="49.51643" lon="-1.599">
        <ele>83.1</ele>
        <time>2014-11-03T13:39:28Z</time>
      </trkpt>
      <trkpt lat="49.51633" lon="-1.59901">
        <ele>83.4</ele>
        <time>2014-11-03T13:39:34Z</time>
      </trkpt>
      <trkpt lat="49.51624" lon="-1.59902">
        <ele>84.3</ele>
        <time>2014-11-03T13:39:40Z</time>
      </trkpt>
      <trkpt lat="49.51614" lon="-1.59903">
        <ele>84.9</ele>
        <time>2014-11-03T13:39:47Z</time>
      </trkpt>
      <trkpt lat="49.51604" lon="-1.59903">
        <ele>85.7</ele>
        <time>2014-11-03T13:39:53Z</time>
      </trkpt>
      <trkpt lat="49.51595" lon="-1.599">
        <ele>85.8</ele>
        <time>2014-11-03T13:40:00Z</time>
      </trkpt>
      <trkpt lat="49.51586" lon="-1.59898">
        <ele>86.3</ele>
        <time>2014-11-03T13:40:08Z</time>
      </trkpt>
      <trkpt lat="49.51577" lon="-1.59901">
        <ele>86.5</ele>
        <time>2014-11-03T13:40:14Z</time>
      </trkpt>
      <trkpt lat="49.51567" lon="-1.59905">
        <ele>86.7</ele>
        <time>2014-11-03T13:40:21Z</time>
      </trkpt>
      <trkpt lat="49.51558" lon="-1.5991">
        <ele>87.8</ele>
        <time>2014-11-03T13:40:28Z</time>
      </trkpt>
      <trkpt lat="49.51551" lon="-1.5992">
        <ele>89.4</ele>
        <time>2014-11-03T13:40:36Z</time>
      </trkpt>
      <trkpt lat="49.51545" lon="-1.59931">
        <ele>89.8</ele>
        <time>2014-11-03T13:40:44Z</time>
      </trkpt>
      <trkpt lat="49.51541" lon="-1.59944">
        <ele>91.1</ele>
        <time>2014-11-03T13:40:53Z</time>
      </trkpt>
      <trkpt lat="49.51538" lon="-1.59959">
        <ele>91.8</ele>
        <time>2014-11-03T13:41:00Z</time>
      </trkpt>
      <trkpt lat="49.51534" lon="-1.59973">
        <ele>92</ele>
        <time>2014-11-03T13:41:07Z</time>
      </trkpt>
      <trkpt lat="49.5153" lon="-1.59987">
        <ele>92.6</ele>
        <time>2014-11-03T13:41:15Z</time>
      </trkpt>
      <trkpt lat="49.51525" lon="-1.59999">
        <ele>93</ele>
        <time>2014-11-03T13:41:22Z</time>
      </trkpt>
      <trkpt lat="49.5152" lon="-1.60012">
        <ele>93.5</ele>
        <time>2014-11-03T13:41:29Z</time>
      </trkpt>
      <trkpt lat="49.51515" lon="-1.60026">
        <ele>94.4</ele>
        <time>2014-11-03T13:41:36Z</time>
      </trkpt>
      <trkpt lat="49.51513" lon="-1.60041">
        <ele>95.6</ele>
        <time>2014-11-03T13:41:44Z</time>
      </trkpt>
      <trkpt lat="49.51509" lon="-1.60055">
        <ele>96.5</ele>
        <time>2014-11-03T13:41:52Z</time>
      </trkpt>
      <trkpt lat="49.51505" lon="-1.60068">
        <ele>96.4</ele>
        <time>2014-11-03T13:41:58Z</time>
      </trkpt>
      <trkpt lat="49.515" lon="-1.6008">
        <ele>96.7</ele>
        <time>2014-11-03T13:42:05Z</time>
      </trkpt>
      <trkpt lat="49.51495" lon="-1.60093">
        <ele>97.4</ele>
        <time>2014-11-03T13:42:13Z</time>
      </trkpt>
      <trkpt lat="49.51488" lon="-1.60102">
        <ele>97.9</ele>
        <time>2014-11-03T13:42:20Z</time>
      </trkpt>
      <trkpt lat="49.5148" lon="-1.60109">
        <ele>98</ele>
        <time>2014-11-03T13:42:27Z</time>
      </trkpt>
      <trkpt lat="49.51472" lon="-1.60118">
        <ele>98.7</ele>
        <time>2014-11-03T13:42:36Z</time>
      </trkpt>
      <trkpt lat="49.51463" lon="-1.60122">
        <ele>99.3</ele>
        <time>2014-11-03T13:42:43Z</time>
      </trkpt>
      <trkpt lat="49.51454" lon="-1.60126">
        <ele>99.9</ele>
        <time>2014-11-03T13:42:50Z</time>
      </trkpt>
      <trkpt lat="49.51443" lon="-1.60131">
        <ele>100.2</ele>
        <time>2014-11-03T13:42:57Z</time>
      </trkpt>
      <trkpt lat="49.51435" lon="-1.60137">
        <ele>100.4</ele>
        <time>2014-11-03T13:43:04Z</time>
      </trkpt>
      <trkpt lat="49.51425" lon="-1.60142">
        <ele>100.9</ele>
        <time>2014-11-03T13:43:13Z</time>
      </trkpt>
      <trkpt lat="49.51418" lon="-1.60151">
        <ele>101.4</ele>
        <time>2014-11-03T13:43:20Z</time>
      </trkpt>
      <trkpt lat="49.5141" lon="-1.6016">
        <ele>101.9</ele>
        <time>2014-11-03T13:43:28Z</time>
      </trkpt>
      <trkpt lat="49.51402" lon="-1.60166">
        <ele>102</ele>
        <time>2014-11-03T13:43:34Z</time>
      </trkpt>
      <trkpt lat="49.51393" lon="-1.60172">
        <ele>102.2</ele>
        <time>2014-11-03T13:43:41Z</time>
      </trkpt>
      <trkpt lat="49.51383" lon="-1.60175">
        <ele>102.7</ele>
        <time>2014-11-03T13:43:48Z</time>
      </trkpt>
      <trkpt lat="49.51374" lon="-1.60181">
        <ele>103.1</ele>
        <time>2014-11-03T13:43:56Z</time>
      </trkpt>
      <trkpt lat="49.51364" lon="-1.60187">
        <ele>103.7</ele>
        <time>2014-11-03T13:44:04Z</time>
      </trkpt>
      <trkpt lat="49.51355" lon="-1.6019">
        <ele>103.6</ele>
        <time>2014-11-03T13:44:10Z</time>
      </trkpt>
      <trkpt lat="49.51347" lon="-1.60195">
        <ele>103.5</ele>
        <time>2014-11-03T13:44:18Z</time>
      </trkpt>
      <trkpt lat="49.51338" lon="-1.60199">
        <ele>103.7</ele>
        <time>2014-11-03T13:44:26Z</time>
      </trkpt>
      <trkpt lat="49.51329" lon="-1.602">
        <ele>104.1</ele>
        <time>2014-11-03T13:44:32Z</time>
      </trkpt>
      <trkpt lat="49.5132" lon="-1.60201">
        <ele>104.5</ele>
        <time>2014-11-03T13:44:38Z</time>
      </trkpt>
      <trkpt lat="49.51312" lon="-1.60209">
        <ele>105.2</ele>
        <time>2014-11-03T13:44:46Z</time>
      </trkpt>
      <trkpt lat="49.51305" lon="-1.60219">
        <ele>105.1</ele>
        <time>2014-11-03T13:44:53Z</time>
      </trkpt>
      <trkpt lat="49.51298" lon="-1.60228">
        <ele>104.6</ele>
        <time>2014-11-03T13:45:00Z</time>
      </trkpt>
      <trkpt lat="49.51291" lon="-1.60239">
        <ele>104.5</ele>
        <time>2014-11-03T13:45:07Z</time>
      </trkpt>
      <trkpt lat="49.51284" lon="-1.60249">
        <ele>104.4</ele>
        <time>2014-11-03T13:45:15Z</time>
      </trkpt>
      <trkpt lat="49.51277" lon="-1.60259">
        <ele>104.2</ele>
        <time>2014-11-03T13:45:22Z</time>
      </trkpt>
      <trkpt lat="49.51269" lon="-1.60267">
        <ele>104.7</ele>
        <time>2014-11-03T13:45:29Z</time>
      </trkpt>
      <trkpt lat="49.5126" lon="-1.60273">
        <ele>105</ele>
        <time>2014-11-03T13:45:36Z</time>
      </trkpt>
      <trkpt lat="49.51252" lon="-1.60283">
        <ele>104.9</ele>
        <time>2014-11-03T13:45:44Z</time>
      </trkpt>
      <trkpt lat="49.5125" lon="-1.60297">
        <ele>105.3</ele>
        <time>2014-11-03T13:45:52Z</time>
      </trkpt>
      <trkpt lat="49.5125" lon="-1.60312">
        <ele>105.7</ele>
        <time>2014-11-03T13:45:59Z</time>
      </trkpt>
      <trkpt lat="49.51246" lon="-1.60324">
        <ele>105.7</ele>
        <time>2014-11-03T13:46:06Z</time>
      </trkpt>
      <trkpt lat="49.51238" lon="-1.60329">
        <ele>106.1</ele>
        <time>2014-11-03T13:46:12Z</time>
      </trkpt>
      <trkpt lat="49.51228" lon="-1.60332">
        <ele>106.3</ele>
        <time>2014-11-03T13:46:19Z</time>
      </trkpt>
      <trkpt lat="49.51219" lon="-1.60336">
        <ele>105.9</ele>
        <time>2014-11-03T13:46:26Z</time>
      </trkpt>
      <trkpt lat="49.51208" lon="-1.60338">
        <ele>106</ele>
        <time>2014-11-03T13:46:33Z</time>
      </trkpt>
      <trkpt lat="49.512" lon="-1.60345">
        <ele>106.4</ele>
        <time>2014-11-03T13:46:38Z</time>
      </trkpt>
      <trkpt lat="49.5119" lon="-1.60347">
        <ele>106</ele>
        <time>2014-11-03T13:46:46Z</time>
      </trkpt>
      <trkpt lat="49.5118" lon="-1.60351">
        <ele>103.7</ele>
        <time>2014-11-03T13:46:54Z</time>
      </trkpt>
      <trkpt lat="49.5117" lon="-1.60352">
        <ele>105.8</ele>
        <time>2014-11-03T13:47:02Z</time>
      </trkpt>
      <trkpt lat="49.5116" lon="-1.60352">
        <ele>107.4</ele>
        <time>2014-11-03T13:47:13Z</time>
      </trkpt>
      <trkpt lat="49.51151" lon="-1.60355">
        <ele>108.4</ele>
        <time>2014-11-03T13:47:23Z</time>
      </trkpt>
      <trkpt lat="49.51145" lon="-1.60367">
        <ele>108.2</ele>
        <time>2014-11-03T13:47:31Z</time>
      </trkpt>
      <trkpt lat="49.51141" lon="-1.6038">
        <ele>108.2</ele>
        <time>2014-11-03T13:47:39Z</time>
      </trkpt>
      <trkpt lat="49.5114" lon="-1.60395">
        <ele>109.4</ele>
        <time>2014-11-03T13:47:48Z</time>
      </trkpt>
      <trkpt lat="49.51133" lon="-1.60407">
        <ele>109.8</ele>
        <time>2014-11-03T13:47:56Z</time>
      </trkpt>
      <trkpt lat="49.51124" lon="-1.6041">
        <ele>109.9</ele>
        <time>2014-11-03T13:48:03Z</time>
      </trkpt>
      <trkpt lat="49.51115" lon="-1.60413">
        <ele>109.9</ele>
        <time>2014-11-03T13:48:09Z</time>
      </trkpt>
      <trkpt lat="49.51106" lon="-1.60414">
        <ele>111.1</ele>
        <time>2014-11-03T13:48:18Z</time>
      </trkpt>
      <trkpt lat="49.51096" lon="-1.60417">
        <ele>112.1</ele>
        <time>2014-11-03T13:48:27Z</time>
      </trkpt>
      <trkpt lat="49.51087" lon="-1.6042">
        <ele>112.2</ele>
        <time>2014-11-03T13:48:35Z</time>
      </trkpt>
      <trkpt lat="49.51079" lon="-1.60431">
        <ele>111.6</ele>
        <time>2014-11-03T13:49:25Z</time>
      </trkpt>
      <trkpt lat="49.51072" lon="-1.6044">
        <ele>111.8</ele>
        <time>2014-11-03T13:49:30Z</time>
      </trkpt>
      <trkpt lat="49.51065" lon="-1.60451">
        <ele>112.5</ele>
        <time>2014-11-03T13:49:36Z</time>
      </trkpt>
      <trkpt lat="49.51068" lon="-1.60464">
        <ele>112.7</ele>
        <time>2014-11-03T13:49:45Z</time>
      </trkpt>
      <trkpt lat="49.51073" lon="-1.60477">
        <ele>113</ele>
        <time>2014-11-03T13:49:52Z</time>
      </trkpt>
      <trkpt lat="49.51075" lon="-1.60491">
        <ele>111.2</ele>
        <time>2014-11-03T13:49:59Z</time>
      </trkpt>
      <trkpt lat="49.51079" lon="-1.60504">
        <ele>113.1</ele>
        <time>2014-11-03T13:50:07Z</time>
      </trkpt>
      <trkpt lat="49.5108" lon="-1.60518">
        <ele>113.3</ele>
        <time>2014-11-03T13:50:14Z</time>
      </trkpt>
      <trkpt lat="49.51082" lon="-1.60533">
        <ele>113.3</ele>
        <time>2014-11-03T13:50:21Z</time>
      </trkpt>
      <trkpt lat="49.51076" lon="-1.60543">
        <ele>113.7</ele>
        <time>2014-11-03T13:50:28Z</time>
      </trkpt>
      <trkpt lat="49.51068" lon="-1.60553">
        <ele>113.4</ele>
        <time>2014-11-03T13:50:35Z</time>
      </trkpt>
      <trkpt lat="49.5106" lon="-1.60558">
        <ele>115</ele>
        <time>2014-11-03T13:50:43Z</time>
      </trkpt>
      <trkpt lat="49.5105" lon="-1.60561">
        <ele>116</ele>
        <time>2014-11-03T13:50:49Z</time>
      </trkpt>
      <trkpt lat="49.51041" lon="-1.60567">
        <ele>116.2</ele>
        <time>2014-11-03T13:50:56Z</time>
      </trkpt>
      <trkpt lat="49.51032" lon="-1.60575">
        <ele>117</ele>
        <time>2014-11-03T13:51:04Z</time>
      </trkpt>
      <trkpt lat="49.51026" lon="-1.60585">
        <ele>117.1</ele>
        <time>2014-11-03T13:51:10Z</time>
      </trkpt>
      <trkpt lat="49.51018" lon="-1.60595">
        <ele>117.6</ele>
        <time>2014-11-03T13:51:18Z</time>
      </trkpt>
      <trkpt lat="49.51008" lon="-1.606">
        <ele>118.3</ele>
        <time>2014-11-03T13:51:26Z</time>
      </trkpt>
      <trkpt lat="49.50999" lon="-1.60605">
        <ele>117.9</ele>
        <time>2014-11-03T13:51:33Z</time>
      </trkpt>
      <trkpt lat="49.50989" lon="-1.60605">
        <ele>119</ele>
        <time>2014-11-03T13:51:42Z</time>
      </trkpt>
      <trkpt lat="49.50979" lon="-1.6061">
        <ele>116.7</ele>
        <time>2014-11-03T13:51:48Z</time>
      </trkpt>
      <trkpt lat="49.5097" lon="-1.60615">
        <ele>117.3</ele>
        <time>2014-11-03T13:51:54Z</time>
      </trkpt>
      <trkpt lat="49.50961" lon="-1.6062">
        <ele>117.3</ele>
        <time>2014-11-03T13:52:00Z</time>
      </trkpt>
      <trkpt lat="49.50952" lon="-1.60627">
        <ele>116.9</ele>
        <time>2014-11-03T13:52:06Z</time>
      </trkpt>
      <trkpt lat="49.50944" lon="-1.60633">
        <ele>116.9</ele>
        <time>2014-11-03T13:52:12Z</time>
      </trkpt>
      <trkpt lat="49.50936" lon="-1.60639">
        <ele>116.4</ele>
        <time>2014-11-03T13:52:18Z</time>
      </trkpt>
      <trkpt lat="49.50926" lon="-1.60646">
        <ele>116.4</ele>
        <time>2014-11-03T13:52:25Z</time>
      </trkpt>
      <trkpt lat="49.50918" lon="-1.60653">
        <ele>116.3</ele>
        <time>2014-11-03T13:52:32Z</time>
      </trkpt>
      <trkpt lat="49.50909" lon="-1.60658">
        <ele>116.1</ele>
        <time>2014-11-03T13:52:39Z</time>
      </trkpt>
      <trkpt lat="49.50901" lon="-1.60665">
        <ele>115.4</ele>
        <time>2014-11-03T13:52:47Z</time>
      </trkpt>
      <trkpt lat="49.50893" lon="-1.60671">
        <ele>115.6</ele>
        <time>2014-11-03T13:52:53Z</time>
      </trkpt>
      <trkpt lat="49.50884" lon="-1.60678">
        <ele>115.7</ele>
        <time>2014-11-03T13:53:00Z</time>
      </trkpt>
      <trkpt lat="49.50875" lon="-1.60685">
        <ele>115.7</ele>
        <time>2014-11-03T13:53:08Z</time>
      </trkpt>
      <trkpt lat="49.50866" lon="-1.60689">
        <ele>115</ele>
        <time>2014-11-03T13:53:15Z</time>
      </trkpt>
      <trkpt lat="49.50857" lon="-1.60694">
        <ele>115.2</ele>
        <time>2014-11-03T13:53:22Z</time>
      </trkpt>
      <trkpt lat="49.50848" lon="-1.60698">
        <ele>114.7</ele>
        <time>2014-11-03T13:53:29Z</time>
      </trkpt>
      <trkpt lat="49.5084" lon="-1.60705">
        <ele>114.5</ele>
        <time>2014-11-03T13:53:36Z</time>
      </trkpt>
      <trkpt lat="49.50831" lon="-1.6071">
        <ele>114.3</ele>
        <time>2014-11-03T13:53:43Z</time>
      </trkpt>
      <trkpt lat="49.50822" lon="-1.60719">
        <ele>113.8</ele>
        <time>2014-11-03T13:53:51Z</time>
      </trkpt>
      <trkpt lat="49.50814" lon="-1.60725">
        <ele>113.4</ele>
        <time>2014-11-03T13:53:58Z</time>
      </trkpt>
      <trkpt lat="49.50805" lon="-1.60733">
        <ele>112.6</ele>
        <time>2014-11-03T13:54:06Z</time>
      </trkpt>
      <trkpt lat="49.50797" lon="-1.60743">
        <ele>112.1</ele>
        <time>2014-11-03T13:54:13Z</time>
      </trkpt>
      <trkpt lat="49.50798" lon="-1.60759">
        <ele>112</ele>
        <time>2014-11-03T13:54:31Z</time>
      </trkpt>
      <trkpt lat="49.50791" lon="-1.60769">
        <ele>112.1</ele>
        <time>2014-11-03T13:54:38Z</time>
      </trkpt>
      <trkpt lat="49.50782" lon="-1.60778">
        <ele>110.8</ele>
        <time>2014-11-03T13:55:12Z</time>
      </trkpt>
      <trkpt lat="49.50773" lon="-1.60784">
        <ele>111</ele>
        <time>2014-11-03T13:55:18Z</time>
      </trkpt>
      <trkpt lat="49.50764" lon="-1.6079">
        <ele>109.8</ele>
        <time>2014-11-03T13:55:27Z</time>
      </trkpt>
      <trkpt lat="49.50756" lon="-1.60798">
        <ele>109.6</ele>
        <time>2014-11-03T13:55:34Z</time>
      </trkpt>
      <trkpt lat="49.50746" lon="-1.60804">
        <ele>109</ele>
        <time>2014-11-03T13:55:41Z</time>
      </trkpt>
      <trkpt lat="49.50737" lon="-1.60811">
        <ele>108.5</ele>
        <time>2014-11-03T13:55:47Z</time>
      </trkpt>
      <trkpt lat="49.50729" lon="-1.60821">
        <ele>107.6</ele>
        <time>2014-11-03T13:55:54Z</time>
      </trkpt>
      <trkpt lat="49.50722" lon="-1.6083">
        <ele>107.1</ele>
        <time>2014-11-03T13:56:00Z</time>
      </trkpt>
      <trkpt lat="49.50715" lon="-1.60839">
        <ele>106.3</ele>
        <time>2014-11-03T13:56:06Z</time>
      </trkpt>
      <trkpt lat="49.50707" lon="-1.60849">
        <ele>105.2</ele>
        <time>2014-11-03T13:56:14Z</time>
      </trkpt>
      <trkpt lat="49.50701" lon="-1.6086">
        <ele>104.5</ele>
        <time>2014-11-03T13:56:20Z</time>
      </trkpt>
      <trkpt lat="49.50692" lon="-1.60867">
        <ele>103.6</ele>
        <time>2014-11-03T13:56:27Z</time>
      </trkpt>
      <trkpt lat="49.50684" lon="-1.60877">
        <ele>103.7</ele>
        <time>2014-11-03T13:56:34Z</time>
      </trkpt>
      <trkpt lat="49.50677" lon="-1.60884">
        <ele>103.8</ele>
        <time>2014-11-03T13:56:41Z</time>
      </trkpt>
      <trkpt lat="49.50668" lon="-1.60893">
        <ele>104.4</ele>
        <time>2014-11-03T13:56:47Z</time>
      </trkpt>
      <trkpt lat="49.5066" lon="-1.609">
        <ele>104.2</ele>
        <time>2014-11-03T13:56:54Z</time>
      </trkpt>
      <trkpt lat="49.50651" lon="-1.60909">
        <ele>103.5</ele>
        <time>2014-11-03T13:57:02Z</time>
      </trkpt>
      <trkpt lat="49.50643" lon="-1.60916">
        <ele>103.7</ele>
        <time>2014-11-03T13:57:10Z</time>
      </trkpt>
      <trkpt lat="49.50635" lon="-1.60924">
        <ele>103.8</ele>
        <time>2014-11-03T13:57:17Z</time>
      </trkpt>
      <trkpt lat="49.50626" lon="-1.60931">
        <ele>103.7</ele>
        <time>2014-11-03T13:57:25Z</time>
      </trkpt>
      <trkpt lat="49.50617" lon="-1.60939">
        <ele>103.5</ele>
        <time>2014-11-03T13:57:32Z</time>
      </trkpt>
      <trkpt lat="49.50609" lon="-1.60947">
        <ele>102.9</ele>
        <time>2014-11-03T13:57:38Z</time>
      </trkpt>
      <trkpt lat="49.506" lon="-1.6095">
        <ele>102.8</ele>
        <time>2014-11-03T13:57:45Z</time>
      </trkpt>
      <trkpt lat="49.5059" lon="-1.60953">
        <ele>102.7</ele>
        <time>2014-11-03T13:57:51Z</time>
      </trkpt>
      <trkpt lat="49.50581" lon="-1.60952">
        <ele>102.8</ele>
        <time>2014-11-03T13:57:58Z</time>
      </trkpt>
      <trkpt lat="49.50571" lon="-1.60952">
        <ele>102.7</ele>
        <time>2014-11-03T13:58:05Z</time>
      </trkpt>
      <trkpt lat="49.50562" lon="-1.60948">
        <ele>102.8</ele>
        <time>2014-11-03T13:58:12Z</time>
      </trkpt>
      <trkpt lat="49.50552" lon="-1.60948">
        <ele>103</ele>
        <time>2014-11-03T13:58:19Z</time>
      </trkpt>
      <trkpt lat="49.50543" lon="-1.60944">
        <ele>103.4</ele>
        <time>2014-11-03T13:58:26Z</time>
      </trkpt>
      <trkpt lat="49.50535" lon="-1.60941">
        <ele>103.5</ele>
        <time>2014-11-03T13:58:32Z</time>
      </trkpt>
      <trkpt lat="49.50526" lon="-1.60933">
        <ele>103.3</ele>
        <time>2014-11-03T13:58:39Z</time>
      </trkpt>
      <trkpt lat="49.50517" lon="-1.60927">
        <ele>103.4</ele>
        <time>2014-11-03T13:58:46Z</time>
      </trkpt>
      <trkpt lat="49.50508" lon="-1.6092">
        <ele>102.7</ele>
        <time>2014-11-03T13:58:53Z</time>
      </trkpt>
      <trkpt lat="49.505" lon="-1.60914">
        <ele>102.6</ele>
        <time>2014-11-03T13:59:00Z</time>
      </trkpt>
      <trkpt lat="49.50491" lon="-1.60907">
        <ele>102.2</ele>
        <time>2014-11-03T13:59:07Z</time>
      </trkpt>
      <trkpt lat="49.50482" lon="-1.60903">
        <ele>101.8</ele>
        <time>2014-11-03T13:59:15Z</time>
      </trkpt>
      <trkpt lat="49.50472" lon="-1.60898">
        <ele>101.7</ele>
        <time>2014-11-03T13:59:23Z</time>
      </trkpt>
      <trkpt lat="49.50463" lon="-1.60893">
        <ele>101.7</ele>
        <time>2014-11-03T13:59:30Z</time>
      </trkpt>
      <trkpt lat="49.50453" lon="-1.6089">
        <ele>101.5</ele>
        <time>2014-11-03T13:59:38Z</time>
      </trkpt>
      <trkpt lat="49.50444" lon="-1.60884">
        <ele>101.4</ele>
        <time>2014-11-03T13:59:46Z</time>
      </trkpt>
      <trkpt lat="49.50434" lon="-1.60877">
        <ele>101.3</ele>
        <time>2014-11-03T13:59:54Z</time>
      </trkpt>
      <trkpt lat="49.50426" lon="-1.6087">
        <ele>100.8</ele>
        <time>2014-11-03T14:00:02Z</time>
      </trkpt>
      <trkpt lat="49.50417" lon="-1.60868">
        <ele>100.6</ele>
        <time>2014-11-03T14:00:09Z</time>
      </trkpt>
      <trkpt lat="49.50407" lon="-1.60866">
        <ele>99.9</ele>
        <time>2014-11-03T14:00:25Z</time>
      </trkpt>
      <trkpt lat="49.50397" lon="-1.60866">
        <ele>99.9</ele>
        <time>2014-11-03T14:00:32Z</time>
      </trkpt>
      <trkpt lat="49.50388" lon="-1.60869">
        <ele>100</ele>
        <time>2014-11-03T14:00:53Z</time>
      </trkpt>
      <trkpt lat="49.50378" lon="-1.60871">
        <ele>99.7</ele>
        <time>2014-11-03T14:01:00Z</time>
      </trkpt>
      <trkpt lat="49.50369" lon="-1.60873">
        <ele>99.8</ele>
        <time>2014-11-03T14:01:22Z</time>
      </trkpt>
      <trkpt lat="49.5036" lon="-1.60877">
        <ele>99.7</ele>
        <time>2014-11-03T14:01:28Z</time>
      </trkpt>
      <trkpt lat="49.5035" lon="-1.6088">
        <ele>99.4</ele>
        <time>2014-11-03T14:01:36Z</time>
      </trkpt>
      <trkpt lat="49.50341" lon="-1.60885">
        <ele>98.9</ele>
        <time>2014-11-03T14:01:42Z</time>
      </trkpt>
      <trkpt lat="49.50332" lon="-1.60888">
        <ele>99.3</ele>
        <time>2014-11-03T14:01:49Z</time>
      </trkpt>
      <trkpt lat="49.50322" lon="-1.60892">
        <ele>99.2</ele>
        <time>2014-11-03T14:01:57Z</time>
      </trkpt>
      <trkpt lat="49.50314" lon="-1.60899">
        <ele>98.9</ele>
        <time>2014-11-03T14:02:02Z</time>
      </trkpt>
      <trkpt lat="49.50305" lon="-1.60903">
        <ele>98.8</ele>
        <time>2014-11-03T14:02:09Z</time>
      </trkpt>
      <trkpt lat="49.50296" lon="-1.60906">
        <ele>98.5</ele>
        <time>2014-11-03T14:02:15Z</time>
      </trkpt>
      <trkpt lat="49.50287" lon="-1.60911">
        <ele>97.8</ele>
        <time>2014-11-03T14:02:21Z</time>
      </trkpt>
      <trkpt lat="49.50278" lon="-1.60913">
        <ele>97.5</ele>
        <time>2014-11-03T14:02:27Z</time>
      </trkpt>
      <trkpt lat="49.50269" lon="-1.60918">
        <ele>97.1</ele>
        <time>2014-11-03T14:02:33Z</time>
      </trkpt>
      <trkpt lat="49.5026" lon="-1.6092">
        <ele>96.6</ele>
        <time>2014-11-03T14:02:40Z</time>
      </trkpt>
      <trkpt lat="49.50251" lon="-1.60923">
        <ele>96</ele>
        <time>2014-11-03T14:02:47Z</time>
      </trkpt>
      <trkpt lat="49.50242" lon="-1.60927">
        <ele>96.1</ele>
        <time>2014-11-03T14:02:53Z</time>
      </trkpt>
      <trkpt lat="49.50233" lon="-1.60935">
        <ele>96.3</ele>
        <time>2014-11-03T14:03:09Z</time>
      </trkpt>
      <trkpt lat="49.50224" lon="-1.60941">
        <ele>95.4</ele>
        <time>2014-11-03T14:03:24Z</time>
      </trkpt>
      <trkpt lat="49.50216" lon="-1.60948">
        <ele>95.1</ele>
        <time>2014-11-03T14:03:46Z</time>
      </trkpt>
      <trkpt lat="49.50207" lon="-1.60949">
        <ele>94.7</ele>
        <time>2014-11-03T14:03:55Z</time>
      </trkpt>
      <trkpt lat="49.50198" lon="-1.6095">
        <ele>94.6</ele>
        <time>2014-11-03T14:04:03Z</time>
      </trkpt>
      <trkpt lat="49.50188" lon="-1.60949">
        <ele>93.9</ele>
        <time>2014-11-03T14:04:10Z</time>
      </trkpt>
      <trkpt lat="49.50179" lon="-1.60949">
        <ele>93</ele>
        <time>2014-11-03T14:04:17Z</time>
      </trkpt>
      <trkpt lat="49.50171" lon="-1.60938">
        <ele>92.6</ele>
        <time>2014-11-03T14:04:24Z</time>
      </trkpt>
      <trkpt lat="49.5017" lon="-1.60923">
        <ele>92.3</ele>
        <time>2014-11-03T14:04:32Z</time>
      </trkpt>
      <trkpt lat="49.5017" lon="-1.60909">
        <ele>92.1</ele>
        <time>2014-11-03T14:04:40Z</time>
      </trkpt>
      <trkpt lat="49.50169" lon="-1.60893">
        <ele>92</ele>
        <time>2014-11-03T14:04:48Z</time>
      </trkpt>
      <trkpt lat="49.50169" lon="-1.60877">
        <ele>91.6</ele>
        <time>2014-11-03T14:04:56Z</time>
      </trkpt>
      <trkpt lat="49.50169" lon="-1.60862">
        <ele>91.3</ele>
        <time>2014-11-03T14:05:04Z</time>
      </trkpt>
      <trkpt lat="49.5017" lon="-1.60848">
        <ele>90.8</ele>
        <time>2014-11-03T14:05:13Z</time>
      </trkpt>
      <trkpt lat="49.50169" lon="-1.60833">
        <ele>90</ele>
        <time>2014-11-03T14:05:20Z</time>
      </trkpt>
      <trkpt lat="49.50168" lon="-1.60817">
        <ele>89</ele>
        <time>2014-11-03T14:05:28Z</time>
      </trkpt>
      <trkpt lat="49.50167" lon="-1.60803">
        <ele>89.2</ele>
        <time>2014-11-03T14:05:33Z</time>
      </trkpt>
      <trkpt lat="49.50165" lon="-1.6079">
        <ele>88.4</ele>
        <time>2014-11-03T14:05:43Z</time>
      </trkpt>
      <trkpt lat="49.50163" lon="-1.60775">
        <ele>87.5</ele>
        <time>2014-11-03T14:05:52Z</time>
      </trkpt>
      <trkpt lat="49.50162" lon="-1.60761">
        <ele>86.8</ele>
        <time>2014-11-03T14:06:02Z</time>
      </trkpt>
      <trkpt lat="49.50162" lon="-1.60747">
        <ele>86.2</ele>
        <time>2014-11-03T14:06:07Z</time>
      </trkpt>
      <trkpt lat="49.5016" lon="-1.60731">
        <ele>85.6</ele>
        <time>2014-11-03T14:06:15Z</time>
      </trkpt>
      <trkpt lat="49.5016" lon="-1.60716">
        <ele>84.7</ele>
        <time>2014-11-03T14:06:22Z</time>
      </trkpt>
      <trkpt lat="49.5016" lon="-1.60701">
        <ele>84.4</ele>
        <time>2014-11-03T14:06:31Z</time>
      </trkpt>
      <trkpt lat="49.5016" lon="-1.60686">
        <ele>83.4</ele>
        <time>2014-11-03T14:06:38Z</time>
      </trkpt>
      <trkpt lat="49.50161" lon="-1.60672">
        <ele>82.9</ele>
        <time>2014-11-03T14:06:44Z</time>
      </trkpt>
      <trkpt lat="49.50163" lon="-1.60658">
        <ele>82.6</ele>
        <time>2014-11-03T14:06:52Z</time>
      </trkpt>
      <trkpt lat="49.50166" lon="-1.60644">
        <ele>82.2</ele>
        <time>2014-11-03T14:07:02Z</time>
      </trkpt>
      <trkpt lat="49.50167" lon="-1.60628">
        <ele>81.5</ele>
        <time>2014-11-03T14:07:10Z</time>
      </trkpt>
      <trkpt lat="49.50168" lon="-1.60614">
        <ele>81.5</ele>
        <time>2014-11-03T14:07:17Z</time>
      </trkpt>
      <trkpt lat="49.5017" lon="-1.606">
        <ele>81.1</ele>
        <time>2014-11-03T14:07:27Z</time>
      </trkpt>
      <trkpt lat="49.50173" lon="-1.60586">
        <ele>80.6</ele>
        <time>2014-11-03T14:07:36Z</time>
      </trkpt>
      <trkpt lat="49.50175" lon="-1.60571">
        <ele>80.9</ele>
        <time>2014-11-03T14:07:45Z</time>
      </trkpt>
      <trkpt lat="49.50176" lon="-1.60555">
        <ele>80.3</ele>
        <time>2014-11-03T14:07:52Z</time>
      </trkpt>
      <trkpt lat="49.50176" lon="-1.60539">
        <ele>78.3</ele>
        <time>2014-11-03T14:08:01Z</time>
      </trkpt>
      <trkpt lat="49.50175" lon="-1.60525">
        <ele>79.7</ele>
        <time>2014-11-03T14:08:07Z</time>
      </trkpt>
      <trkpt lat="49.50174" lon="-1.60511">
        <ele>79.9</ele>
        <time>2014-11-03T14:08:13Z</time>
      </trkpt>
      <trkpt lat="49.50174" lon="-1.60496">
        <ele>79.7</ele>
        <time>2014-11-03T14:08:20Z</time>
      </trkpt>
      <trkpt lat="49.50173" lon="-1.60481">
        <ele>79.6</ele>
        <time>2014-11-03T14:08:26Z</time>
      </trkpt>
      <trkpt lat="49.50173" lon="-1.60467">
        <ele>79.5</ele>
        <time>2014-11-03T14:08:32Z</time>
      </trkpt>
      <trkpt lat="49.50173" lon="-1.60452">
        <ele>79.1</ele>
        <time>2014-11-03T14:08:39Z</time>
      </trkpt>
      <trkpt lat="49.50172" lon="-1.60438">
        <ele>78.6</ele>
        <time>2014-11-03T14:08:46Z</time>
      </trkpt>
      <trkpt lat="49.50173" lon="-1.60422">
        <ele>78.7</ele>
        <time>2014-11-03T14:08:53Z</time>
      </trkpt>
      <trkpt lat="49.50173" lon="-1.60407">
        <ele>78.4</ele>
        <time>2014-11-03T14:09:00Z</time>
      </trkpt>
      <trkpt lat="49.50174" lon="-1.60391">
        <ele>78.4</ele>
        <time>2014-11-03T14:09:08Z</time>
      </trkpt>
      <trkpt lat="49.50167" lon="-1.6038">
        <ele>77.8</ele>
        <time>2014-11-03T14:09:17Z</time>
      </trkpt>
      <trkpt lat="49.50157" lon="-1.60384">
        <ele>76.9</ele>
        <time>2014-11-03T14:10:05Z</time>
      </trkpt>
      <trkpt lat="49.50148" lon="-1.60389">
        <ele>76.5</ele>
        <time>2014-11-03T14:10:12Z</time>
      </trkpt>
      <trkpt lat="49.50138" lon="-1.60389">
        <ele>76.5</ele>
        <time>2014-11-03T14:10:20Z</time>
      </trkpt>
      <trkpt lat="49.50128" lon="-1.60391">
        <ele>77</ele>
        <time>2014-11-03T14:10:31Z</time>
      </trkpt>
      <trkpt lat="49.50117" lon="-1.60391">
        <ele>76.6</ele>
        <time>2014-11-03T14:10:39Z</time>
      </trkpt>
      <trkpt lat="49.50108" lon="-1.60394">
        <ele>76.3</ele>
        <time>2014-11-03T14:10:46Z</time>
      </trkpt>
      <trkpt lat="49.50098" lon="-1.60393">
        <ele>75.6</ele>
        <time>2014-11-03T14:10:53Z</time>
      </trkpt>
      <trkpt lat="49.50089" lon="-1.60392">
        <ele>75.1</ele>
        <time>2014-11-03T14:11:00Z</time>
      </trkpt>
      <trkpt lat="49.50081" lon="-1.60384">
        <ele>74.5</ele>
        <time>2014-11-03T14:11:07Z</time>
      </trkpt>
      <trkpt lat="49.50074" lon="-1.60373">
        <ele>74.4</ele>
        <time>2014-11-03T14:11:15Z</time>
      </trkpt>
      <trkpt lat="49.50067" lon="-1.60363">
        <ele>73.7</ele>
        <time>2014-11-03T14:11:23Z</time>
      </trkpt>
      <trkpt lat="49.50058" lon="-1.60361">
        <ele>73</ele>
        <time>2014-11-03T14:11:33Z</time>
      </trkpt>
      <trkpt lat="49.50048" lon="-1.60357">
        <ele>72.9</ele>
        <time>2014-11-03T14:11:40Z</time>
      </trkpt>
      <trkpt lat="49.50039" lon="-1.60353">
        <ele>72.9</ele>
        <time>2014-11-03T14:11:47Z</time>
      </trkpt>
      <trkpt lat="49.5003" lon="-1.6035">
        <ele>72.4</ele>
        <time>2014-11-03T14:11:55Z</time>
      </trkpt>
      <trkpt lat="49.5002" lon="-1.60346">
        <ele>72.6</ele>
        <time>2014-11-03T14:12:03Z</time>
      </trkpt>
      <trkpt lat="49.50011" lon="-1.60344">
        <ele>72.6</ele>
        <time>2014-11-03T14:12:09Z</time>
      </trkpt>
      <trkpt lat="49.50001" lon="-1.6034">
        <ele>72</ele>
        <time>2014-11-03T14:12:16Z</time>
      </trkpt>
      <trkpt lat="49.49992" lon="-1.60339">
        <ele>70.9</ele>
        <time>2014-11-03T14:12:25Z</time>
      </trkpt>
      <trkpt lat="49.49986" lon="-1.60328">
        <ele>70.4</ele>
        <time>2014-11-03T14:12:43Z</time>
      </trkpt>
      <trkpt lat="49.49977" lon="-1.60324">
        <ele>70.5</ele>
        <time>2014-11-03T14:12:48Z</time>
      </trkpt>
      <trkpt lat="49.49968" lon="-1.60319">
        <ele>70</ele>
        <time>2014-11-03T14:12:54Z</time>
      </trkpt>
      <trkpt lat="49.49959" lon="-1.60321">
        <ele>69.2</ele>
        <time>2014-11-03T14:13:06Z</time>
      </trkpt>
      <trkpt lat="49.4995" lon="-1.60318">
        <ele>68.7</ele>
        <time>2014-11-03T14:13:17Z</time>
      </trkpt>
      <trkpt lat="49.49942" lon="-1.60313">
        <ele>67.3</ele>
        <time>2014-11-03T14:13:53Z</time>
      </trkpt>
      <trkpt lat="49.49933" lon="-1.60308">
        <ele>67</ele>
        <time>2014-11-03T14:14:00Z</time>
      </trkpt>
      <trkpt lat="49.49929" lon="-1.60294">
        <ele>66.1</ele>
        <time>2014-11-03T14:14:14Z</time>
      </trkpt>
      <trkpt lat="49.49931" lon="-1.60279">
        <ele>65.6</ele>
        <time>2014-11-03T14:14:22Z</time>
      </trkpt>
      <trkpt lat="49.49932" lon="-1.60264">
        <ele>65.3</ele>
        <time>2014-11-03T14:14:30Z</time>
      </trkpt>
      <trkpt lat="49.49933" lon="-1.6025">
        <ele>64.5</ele>
        <time>2014-11-03T14:14:41Z</time>
      </trkpt>
      <trkpt lat="49.49927" lon="-1.6024">
        <ele>64.1</ele>
        <time>2014-11-03T14:14:49Z</time>
      </trkpt>
      <trkpt lat="49.49923" lon="-1.60227">
        <ele>64.4</ele>
        <time>2014-11-03T14:14:55Z</time>
      </trkpt>
      <trkpt lat="49.49923" lon="-1.60212">
        <ele>63.8</ele>
        <time>2014-11-03T14:15:04Z</time>
      </trkpt>
      <trkpt lat="49.49923" lon="-1.60197">
        <ele>63.7</ele>
        <time>2014-11-03T14:15:11Z</time>
      </trkpt>
      <trkpt lat="49.49923" lon="-1.60183">
        <ele>63.5</ele>
        <time>2014-11-03T14:15:19Z</time>
      </trkpt>
      <trkpt lat="49.49925" lon="-1.60169">
        <ele>63.2</ele>
        <time>2014-11-03T14:15:30Z</time>
      </trkpt>
      <trkpt lat="49.49922" lon="-1.60155">
        <ele>63</ele>
        <time>2014-11-03T14:15:39Z</time>
      </trkpt>
      <trkpt lat="49.49915" lon="-1.60146">
        <ele>62.2</ele>
        <time>2014-11-03T14:15:48Z</time>
      </trkpt>
      <trkpt lat="49.49905" lon="-1.60142">
        <ele>61.7</ele>
        <time>2014-11-03T14:15:56Z</time>
      </trkpt>
      <trkpt lat="49.49896" lon="-1.60137">
        <ele>61.5</ele>
        <time>2014-11-03T14:16:04Z</time>
      </trkpt>
      <trkpt lat="49.49888" lon="-1.60128">
        <ele>61</ele>
        <time>2014-11-03T14:16:12Z</time>
      </trkpt>
      <trkpt lat="49.4988" lon="-1.6012">
        <ele>60.6</ele>
        <time>2014-11-03T14:16:22Z</time>
      </trkpt>
      <trkpt lat="49.49872" lon="-1.60113">
        <ele>58</ele>
        <time>2014-11-03T14:18:16Z</time>
      </trkpt>
      <trkpt lat="49.49866" lon="-1.60102">
        <ele>56.2</ele>
        <time>2014-11-03T14:19:24Z</time>
      </trkpt>
      <trkpt lat="49.49859" lon="-1.6009">
        <ele>56.1</ele>
        <time>2014-11-03T14:19:36Z</time>
      </trkpt>
      <trkpt lat="49.49851" lon="-1.60084">
        <ele>55.3</ele>
        <time>2014-11-03T14:19:47Z</time>
      </trkpt>
      <trkpt lat="49.49842" lon="-1.60078">
        <ele>55</ele>
        <time>2014-11-03T14:19:59Z</time>
      </trkpt>
      <trkpt lat="49.49834" lon="-1.6007">
        <ele>54.1</ele>
        <time>2014-11-03T14:20:09Z</time>
      </trkpt>
      <trkpt lat="49.49825" lon="-1.60062">
        <ele>53.8</ele>
        <time>2014-11-03T14:20:28Z</time>
      </trkpt>
      <trkpt lat="49.49819" lon="-1.60051">
        <ele>53.5</ele>
        <time>2014-11-03T14:20:37Z</time>
      </trkpt>
      <trkpt lat="49.4981" lon="-1.60044">
        <ele>52.5</ele>
        <time>2014-11-03T14:20:47Z</time>
      </trkpt>
      <trkpt lat="49.49801" lon="-1.60036">
        <ele>52.3</ele>
        <time>2014-11-03T14:20:57Z</time>
      </trkpt>
      <trkpt lat="49.49792" lon="-1.60034">
        <ele>52.6</ele>
        <time>2014-11-03T14:21:04Z</time>
      </trkpt>
      <trkpt lat="49.49784" lon="-1.60028">
        <ele>51.6</ele>
        <time>2014-11-03T14:21:11Z</time>
      </trkpt>
      <trkpt lat="49.49774" lon="-1.60027">
        <ele>50.6</ele>
        <time>2014-11-03T14:21:19Z</time>
      </trkpt>
      <trkpt lat="49.49764" lon="-1.60027">
        <ele>49.9</ele>
        <time>2014-11-03T14:21:27Z</time>
      </trkpt>
      <trkpt lat="49.49755" lon="-1.60028">
        <ele>48.3</ele>
        <time>2014-11-03T14:21:34Z</time>
      </trkpt>
      <trkpt lat="49.49745" lon="-1.60029">
        <ele>47.3</ele>
        <time>2014-11-03T14:21:41Z</time>
      </trkpt>
      <trkpt lat="49.49736" lon="-1.60029">
        <ele>46.6</ele>
        <time>2014-11-03T14:21:48Z</time>
      </trkpt>
      <trkpt lat="49.49726" lon="-1.60029">
        <ele>45.6</ele>
        <time>2014-11-03T14:21:56Z</time>
      </trkpt>
      <trkpt lat="49.49716" lon="-1.60027">
        <ele>44.6</ele>
        <time>2014-11-03T14:22:05Z</time>
      </trkpt>
      <trkpt lat="49.49707" lon="-1.60025">
        <ele>44.4</ele>
        <time>2014-11-03T14:22:11Z</time>
      </trkpt>
      <trkpt lat="49.49698" lon="-1.60022">
        <ele>44</ele>
        <time>2014-11-03T14:22:20Z</time>
      </trkpt>
      <trkpt lat="49.4969" lon="-1.60014">
        <ele>43.7</ele>
        <time>2014-11-03T14:22:27Z</time>
      </trkpt>
      <trkpt lat="49.49682" lon="-1.60007">
        <ele>43.4</ele>
        <time>2014-11-03T14:22:36Z</time>
      </trkpt>
      <trkpt lat="49.49673" lon="-1.6">
        <ele>43.3</ele>
        <time>2014-11-03T14:22:44Z</time>
      </trkpt>
      <trkpt lat="49.49664" lon="-1.59992">
        <ele>43.3</ele>
        <time>2014-11-03T14:22:52Z</time>
      </trkpt>
      <trkpt lat="49.49658" lon="-1.59979">
        <ele>43.2</ele>
        <time>2014-11-03T14:22:59Z</time>
      </trkpt>
      <trkpt lat="49.49652" lon="-1.59967">
        <ele>43.5</ele>
        <time>2014-11-03T14:23:05Z</time>
      </trkpt>
      <trkpt lat="49.49644" lon="-1.59959">
        <ele>43.4</ele>
        <time>2014-11-03T14:23:13Z</time>
      </trkpt>
      <trkpt lat="49.49639" lon="-1.59946">
        <ele>44</ele>
        <time>2014-11-03T14:23:20Z</time>
      </trkpt>
      <trkpt lat="49.49633" lon="-1.59935">
        <ele>44.4</ele>
        <time>2014-11-03T14:23:27Z</time>
      </trkpt>
      <trkpt lat="49.49628" lon="-1.59923">
        <ele>44.3</ele>
        <time>2014-11-03T14:23:34Z</time>
      </trkpt>
      <trkpt lat="49.49622" lon="-1.59912">
        <ele>44.1</ele>
        <time>2014-11-03T14:23:42Z</time>
      </trkpt>
      <trkpt lat="49.49619" lon="-1.59897">
        <ele>44.2</ele>
        <time>2014-11-03T14:23:50Z</time>
      </trkpt>
      <trkpt lat="49.49613" lon="-1.59886">
        <ele>44.1</ele>
        <time>2014-11-03T14:23:57Z</time>
      </trkpt>
      <trkpt lat="49.49606" lon="-1.59876">
        <ele>43.3</ele>
        <time>2014-11-03T14:24:05Z</time>
      </trkpt>
      <trkpt lat="49.49601" lon="-1.59862">
        <ele>43.4</ele>
        <time>2014-11-03T14:24:11Z</time>
      </trkpt>
      <trkpt lat="49.49598" lon="-1.59848">
        <ele>42.9</ele>
        <time>2014-11-03T14:24:18Z</time>
      </trkpt>
      <trkpt lat="49.49597" lon="-1.59834">
        <ele>41.4</ele>
        <time>2014-11-03T14:24:25Z</time>
      </trkpt>
      <trkpt lat="49.49594" lon="-1.59818">
        <ele>41.9</ele>
        <time>2014-11-03T14:24:32Z</time>
      </trkpt>
      <trkpt lat="49.49589" lon="-1.59804">
        <ele>41.8</ele>
        <time>2014-11-03T14:24:41Z</time>
      </trkpt>
      <trkpt lat="49.49584" lon="-1.59791">
        <ele>41.7</ele>
        <time>2014-11-03T14:24:50Z</time>
      </trkpt>
      <trkpt lat="49.49578" lon="-1.59779">
        <ele>41.9</ele>
        <time>2014-11-03T14:24:59Z</time>
      </trkpt>
      <trkpt lat="49.49572" lon="-1.59767">
        <ele>42.2</ele>
        <time>2014-11-03T14:25:07Z</time>
      </trkpt>
      <trkpt lat="49.49566" lon="-1.59754">
        <ele>42.1</ele>
        <time>2014-11-03T14:25:15Z</time>
      </trkpt>
      <trkpt lat="49.49561" lon="-1.59742">
        <ele>42.5</ele>
        <time>2014-11-03T14:25:22Z</time>
      </trkpt>
      <trkpt lat="49.49556" lon="-1.59729">
        <ele>42.5</ele>
        <time>2014-11-03T14:25:31Z</time>
      </trkpt>
      <trkpt lat="49.49549" lon="-1.59717">
        <ele>43</ele>
        <time>2014-11-03T14:25:39Z</time>
      </trkpt>
      <trkpt lat="49.49545" lon="-1.59705">
        <ele>43.7</ele>
        <time>2014-11-03T14:25:44Z</time>
      </trkpt>
      <trkpt lat="49.49539" lon="-1.59692">
        <ele>43.5</ele>
        <time>2014-11-03T14:25:52Z</time>
      </trkpt>
      <trkpt lat="49.49535" lon="-1.59679">
        <ele>44.2</ele>
        <time>2014-11-03T14:25:58Z</time>
      </trkpt>
      <trkpt lat="49.4953" lon="-1.59665">
        <ele>45</ele>
        <time>2014-11-03T14:26:07Z</time>
      </trkpt>
      <trkpt lat="49.49525" lon="-1.59651">
        <ele>45.4</ele>
        <time>2014-11-03T14:26:16Z</time>
      </trkpt>
      <trkpt lat="49.49522" lon="-1.59638">
        <ele>46.1</ele>
        <time>2014-11-03T14:26:23Z</time>
      </trkpt>
      <trkpt lat="49.49517" lon="-1.59625">
        <ele>46.9</ele>
        <time>2014-11-03T14:26:31Z</time>
      </trkpt>
      <trkpt lat="49.49512" lon="-1.59614">
        <ele>47.7</ele>
        <time>2014-11-03T14:26:38Z</time>
      </trkpt>
      <trkpt lat="49.49508" lon="-1.59601">
        <ele>47.6</ele>
        <time>2014-11-03T14:26:45Z</time>
      </trkpt>
      <trkpt lat="49.49504" lon="-1.59588">
        <ele>48.8</ele>
        <time>2014-11-03T14:26:53Z</time>
      </trkpt>
      <trkpt lat="49.49498" lon="-1.59576">
        <ele>50</ele>
        <time>2014-11-03T14:27:02Z</time>
      </trkpt>
      <trkpt lat="49.49494" lon="-1.59562">
        <ele>50.9</ele>
        <time>2014-11-03T14:27:12Z</time>
      </trkpt>
      <trkpt lat="49.49489" lon="-1.59549">
        <ele>52.1</ele>
        <time>2014-11-03T14:27:20Z</time>
      </trkpt>
      <trkpt lat="49.49485" lon="-1.59537">
        <ele>53.1</ele>
        <time>2014-11-03T14:27:29Z</time>
      </trkpt>
      <trkpt lat="49.49481" lon="-1.59523">
        <ele>53.8</ele>
        <time>2014-11-03T14:27:36Z</time>
      </trkpt>
      <trkpt lat="49.49476" lon="-1.59509">
        <ele>54.3</ele>
        <time>2014-11-03T14:27:45Z</time>
      </trkpt>
      <trkpt lat="49.49471" lon="-1.59498">
        <ele>55.1</ele>
        <time>2014-11-03T14:27:53Z</time>
      </trkpt>
      <trkpt lat="49.49467" lon="-1.59484">
        <ele>56.2</ele>
        <time>2014-11-03T14:28:02Z</time>
      </trkpt>
      <trkpt lat="49.49462" lon="-1.5947">
        <ele>57.3</ele>
        <time>2014-11-03T14:28:11Z</time>
      </trkpt>
      <trkpt lat="49.49459" lon="-1.59456">
        <ele>57.6</ele>
        <time>2014-11-03T14:28:18Z</time>
      </trkpt>
      <trkpt lat="49.49453" lon="-1.59443">
        <ele>58.6</ele>
        <time>2014-11-03T14:28:26Z</time>
      </trkpt>
      <trkpt lat="49.49448" lon="-1.59431">
        <ele>59</ele>
        <time>2014-11-03T14:28:35Z</time>
      </trkpt>
      <trkpt lat="49.49439" lon="-1.59429">
        <ele>59.4</ele>
        <time>2014-11-03T14:28:45Z</time>
      </trkpt>
      <trkpt lat="49.49431" lon="-1.59436">
        <ele>59.3</ele>
        <time>2014-11-03T14:28:52Z</time>
      </trkpt>
      <trkpt lat="49.49423" lon="-1.59445">
        <ele>60.4</ele>
        <time>2014-11-03T14:29:16Z</time>
      </trkpt>
      <trkpt lat="49.49414" lon="-1.59448">
        <ele>60</ele>
        <time>2014-11-03T14:29:26Z</time>
      </trkpt>
      <trkpt lat="49.49406" lon="-1.59455">
        <ele>59.4</ele>
        <time>2014-11-03T14:29:36Z</time>
      </trkpt>
      <trkpt lat="49.49397" lon="-1.59461">
        <ele>59.2</ele>
        <time>2014-11-03T14:29:43Z</time>
      </trkpt>
      <trkpt lat="49.49388" lon="-1.59465">
        <ele>58.7</ele>
        <time>2014-11-03T14:29:50Z</time>
      </trkpt>
      <trkpt lat="49.49377" lon="-1.59466">
        <ele>59.1</ele>
        <time>2014-11-03T14:29:57Z</time>
      </trkpt>
      <trkpt lat="49.4937" lon="-1.59457">
        <ele>59.1</ele>
        <time>2014-11-03T14:30:03Z</time>
      </trkpt>
      <trkpt lat="49.49367" lon="-1.59442">
        <ele>59.2</ele>
        <time>2014-11-03T14:30:12Z</time>
      </trkpt>
      <trkpt lat="49.49366" lon="-1.59429">
        <ele>59.5</ele>
        <time>2014-11-03T14:30:23Z</time>
      </trkpt>
      <trkpt lat="49.49363" lon="-1.59415">
        <ele>60.2</ele>
        <time>2014-11-03T14:30:56Z</time>
      </trkpt>
      <trkpt lat="49.49363" lon="-1.59391">
        <ele>61.5</ele>
        <time>2014-11-03T14:31:31Z</time>
      </trkpt>
      <trkpt lat="49.49357" lon="-1.5938">
        <ele>61.9</ele>
        <time>2014-11-03T14:31:43Z</time>
      </trkpt>
      <trkpt lat="49.49352" lon="-1.59366">
        <ele>62.6</ele>
        <time>2014-11-03T14:31:52Z</time>
      </trkpt>
      <trkpt lat="49.4935" lon="-1.59352">
        <ele>63.8</ele>
        <time>2014-11-03T14:32:00Z</time>
      </trkpt>
      <trkpt lat="49.49347" lon="-1.59337">
        <ele>64.9</ele>
        <time>2014-11-03T14:32:08Z</time>
      </trkpt>
      <trkpt lat="49.49343" lon="-1.59323">
        <ele>66.3</ele>
        <time>2014-11-03T14:32:17Z</time>
      </trkpt>
      <trkpt lat="49.49341" lon="-1.59309">
        <ele>67.3</ele>
        <time>2014-11-03T14:32:25Z</time>
      </trkpt>
      <trkpt lat="49.49339" lon="-1.59294">
        <ele>68.4</ele>
        <time>2014-11-03T14:32:34Z</time>
      </trkpt>
      <trkpt lat="49.49333" lon="-1.59281">
        <ele>69.1</ele>
        <time>2014-11-03T14:32:42Z</time>
      </trkpt>
      <trkpt lat="49.49331" lon="-1.59266">
        <ele>69.7</ele>
        <time>2014-11-03T14:32:50Z</time>
      </trkpt>
      <trkpt lat="49.4933" lon="-1.59252">
        <ele>71.3</ele>
        <time>2014-11-03T14:32:57Z</time>
      </trkpt>
      <trkpt lat="49.49326" lon="-1.59238">
        <ele>73.3</ele>
        <time>2014-11-03T14:33:06Z</time>
      </trkpt>
      <trkpt lat="49.49323" lon="-1.59224">
        <ele>75.1</ele>
        <time>2014-11-03T14:33:16Z</time>
      </trkpt>
      <trkpt lat="49.49322" lon="-1.59208">
        <ele>75.5</ele>
        <time>2014-11-03T14:33:23Z</time>
      </trkpt>
      <trkpt lat="49.49324" lon="-1.59193">
        <ele>75.9</ele>
        <time>2014-11-03T14:33:30Z</time>
      </trkpt>
      <trkpt lat="49.49326" lon="-1.59179">
        <ele>76.4</ele>
        <time>2014-11-03T14:33:37Z</time>
      </trkpt>
      <trkpt lat="49.49332" lon="-1.59168">
        <ele>76</ele>
        <time>2014-11-03T14:33:57Z</time>
      </trkpt>
      <trkpt lat="49.49339" lon="-1.59159">
        <ele>76.8</ele>
        <time>2014-11-03T14:34:03Z</time>
      </trkpt>
      <trkpt lat="49.49347" lon="-1.59151">
        <ele>77.3</ele>
        <time>2014-11-03T14:34:11Z</time>
      </trkpt>
      <trkpt lat="49.49356" lon="-1.59146">
        <ele>77.6</ele>
        <time>2014-11-03T14:34:20Z</time>
      </trkpt>
      <trkpt lat="49.49366" lon="-1.59144">
        <ele>77.9</ele>
        <time>2014-11-03T14:34:28Z</time>
      </trkpt>
      <trkpt lat="49.49375" lon="-1.59137">
        <ele>78.9</ele>
        <time>2014-11-03T14:34:47Z</time>
      </trkpt>
      <trkpt lat="49.49387" lon="-1.59135">
        <ele>79.4</ele>
        <time>2014-11-03T14:34:54Z</time>
      </trkpt>
      <trkpt lat="49.49395" lon="-1.59129">
        <ele>79.6</ele>
        <time>2014-11-03T14:35:00Z</time>
      </trkpt>
      <trkpt lat="49.49404" lon="-1.59123">
        <ele>79.6</ele>
        <time>2014-11-03T14:35:08Z</time>
      </trkpt>
      <trkpt lat="49.49414" lon="-1.59119">
        <ele>79.5</ele>
        <time>2014-11-03T14:35:15Z</time>
      </trkpt>
      <trkpt lat="49.49423" lon="-1.59117">
        <ele>79.7</ele>
        <time>2014-11-03T14:35:21Z</time>
      </trkpt>
      <trkpt lat="49.49432" lon="-1.59116">
        <ele>79.9</ele>
        <time>2014-11-03T14:35:26Z</time>
      </trkpt>
      <trkpt lat="49.4944" lon="-1.59107">
        <ele>80.2</ele>
        <time>2014-11-03T14:35:34Z</time>
      </trkpt>
      <trkpt lat="49.49447" lon="-1.59097">
        <ele>79.9</ele>
        <time>2014-11-03T14:35:45Z</time>
      </trkpt>
      <trkpt lat="49.49454" lon="-1.5909">
        <ele>79.6</ele>
        <time>2014-11-03T14:35:57Z</time>
      </trkpt>
      <trkpt lat="49.49449" lon="-1.59077">
        <ele>79.2</ele>
        <time>2014-11-03T14:36:16Z</time>
      </trkpt>
      <trkpt lat="49.49445" lon="-1.59065">
        <ele>78.5</ele>
        <time>2014-11-03T14:36:35Z</time>
      </trkpt>
      <trkpt lat="49.49441" lon="-1.59052">
        <ele>77.3</ele>
        <time>2014-11-03T14:36:48Z</time>
      </trkpt>
      <trkpt lat="49.49441" lon="-1.59036">
        <ele>76.6</ele>
        <time>2014-11-03T14:36:58Z</time>
      </trkpt>
      <trkpt lat="49.49438" lon="-1.59022">
        <ele>76</ele>
        <time>2014-11-03T14:37:12Z</time>
      </trkpt>
      <trkpt lat="49.49435" lon="-1.59006">
        <ele>74.9</ele>
        <time>2014-11-03T14:37:23Z</time>
      </trkpt>
      <trkpt lat="49.49433" lon="-1.58992">
        <ele>74.3</ele>
        <time>2014-11-03T14:37:32Z</time>
      </trkpt>
      <trkpt lat="49.49429" lon="-1.5898">
        <ele>73.3</ele>
        <time>2014-11-03T14:37:40Z</time>
      </trkpt>
      <trkpt lat="49.49426" lon="-1.58965">
        <ele>71.6</ele>
        <time>2014-11-03T14:37:50Z</time>
      </trkpt>
      <trkpt lat="49.49422" lon="-1.58951">
        <ele>70.3</ele>
        <time>2014-11-03T14:38:00Z</time>
      </trkpt>
      <trkpt lat="49.49417" lon="-1.58939">
        <ele>69</ele>
        <time>2014-11-03T14:38:08Z</time>
      </trkpt>
      <trkpt lat="49.49411" lon="-1.58927">
        <ele>68.5</ele>
        <time>2014-11-03T14:38:19Z</time>
      </trkpt>
      <trkpt lat="49.49405" lon="-1.58916">
        <ele>67.6</ele>
        <time>2014-11-03T14:38:30Z</time>
      </trkpt>
      <trkpt lat="49.49398" lon="-1.58906">
        <ele>66.7</ele>
        <time>2014-11-03T14:38:39Z</time>
      </trkpt>
      <trkpt lat="49.49392" lon="-1.58895">
        <ele>66</ele>
        <time>2014-11-03T14:38:45Z</time>
      </trkpt>
      <trkpt lat="49.49384" lon="-1.58885">
        <ele>64.7</ele>
        <time>2014-11-03T14:38:53Z</time>
      </trkpt>
      <trkpt lat="49.49379" lon="-1.58872">
        <ele>64.8</ele>
        <time>2014-11-03T14:39:01Z</time>
      </trkpt>
      <trkpt lat="49.49378" lon="-1.58858">
        <ele>63.8</ele>
        <time>2014-11-03T14:39:09Z</time>
      </trkpt>
      <trkpt lat="49.49383" lon="-1.58845">
        <ele>63.9</ele>
        <time>2014-11-03T14:39:16Z</time>
      </trkpt>
      <trkpt lat="49.49385" lon="-1.5883">
        <ele>63.6</ele>
        <time>2014-11-03T14:39:23Z</time>
      </trkpt>
      <trkpt lat="49.49386" lon="-1.58816">
        <ele>62.9</ele>
        <time>2014-11-03T14:39:29Z</time>
      </trkpt>
      <trkpt lat="49.4939" lon="-1.58803">
        <ele>62.8</ele>
        <time>2014-11-03T14:39:36Z</time>
      </trkpt>
      <trkpt lat="49.49396" lon="-1.5879">
        <ele>62.5</ele>
        <time>2014-11-03T14:39:43Z</time>
      </trkpt>
      <trkpt lat="49.49401" lon="-1.58779">
        <ele>61.9</ele>
        <time>2014-11-03T14:39:50Z</time>
      </trkpt>
      <trkpt lat="49.49409" lon="-1.58769">
        <ele>62</ele>
        <time>2014-11-03T14:39:58Z</time>
      </trkpt>
      <trkpt lat="49.49415" lon="-1.58758">
        <ele>61.4</ele>
        <time>2014-11-03T14:40:08Z</time>
      </trkpt>
      <trkpt lat="49.49424" lon="-1.5875">
        <ele>61.5</ele>
        <time>2014-11-03T14:40:16Z</time>
      </trkpt>
      <trkpt lat="49.49432" lon="-1.58741">
        <ele>60.8</ele>
        <time>2014-11-03T14:40:23Z</time>
      </trkpt>
      <trkpt lat="49.4944" lon="-1.58731">
        <ele>61.2</ele>
        <time>2014-11-03T14:40:31Z</time>
      </trkpt>
      <trkpt lat="49.49449" lon="-1.58722">
        <ele>60.9</ele>
        <time>2014-11-03T14:40:39Z</time>
      </trkpt>
      <trkpt lat="49.49457" lon="-1.58714">
        <ele>61</ele>
        <time>2014-11-03T14:40:47Z</time>
      </trkpt>
      <trkpt lat="49.49466" lon="-1.58708">
        <ele>60.9</ele>
        <time>2014-11-03T14:40:56Z</time>
      </trkpt>
      <trkpt lat="49.49471" lon="-1.58695">
        <ele>61.5</ele>
        <time>2014-11-03T14:41:07Z</time>
      </trkpt>
      <trkpt lat="49.49479" lon="-1.58687">
        <ele>61.3</ele>
        <time>2014-11-03T14:41:14Z</time>
      </trkpt>
      <trkpt lat="49.49486" lon="-1.58677">
        <ele>61.5</ele>
        <time>2014-11-03T14:41:21Z</time>
      </trkpt>
      <trkpt lat="49.49493" lon="-1.58669">
        <ele>61.6</ele>
        <time>2014-11-03T14:41:27Z</time>
      </trkpt>
      <trkpt lat="49.49501" lon="-1.5866">
        <ele>61.4</ele>
        <time>2014-11-03T14:41:34Z</time>
      </trkpt>
      <trkpt lat="49.49507" lon="-1.5865">
        <ele>62</ele>
        <time>2014-11-03T14:41:42Z</time>
      </trkpt>
      <trkpt lat="49.49514" lon="-1.58641">
        <ele>62.1</ele>
        <time>2014-11-03T14:41:49Z</time>
      </trkpt>
      <trkpt lat="49.49522" lon="-1.58634">
        <ele>62.1</ele>
        <time>2014-11-03T14:41:57Z</time>
      </trkpt>
      <trkpt lat="49.49531" lon="-1.58627">
        <ele>62.4</ele>
        <time>2014-11-03T14:42:06Z</time>
      </trkpt>
      <trkpt lat="49.49538" lon="-1.58618">
        <ele>62.6</ele>
        <time>2014-11-03T14:42:16Z</time>
      </trkpt>
      <trkpt lat="49.49546" lon="-1.58611">
        <ele>62.2</ele>
        <time>2014-11-03T14:42:22Z</time>
      </trkpt>
      <trkpt lat="49.49549" lon="-1.58597">
        <ele>62.3</ele>
        <time>2014-11-03T14:42:26Z</time>
      </trkpt>
      <trkpt lat="49.49547" lon="-1.58583">
        <ele>62.3</ele>
        <time>2014-11-03T14:42:33Z</time>
      </trkpt>
      <trkpt lat="49.49544" lon="-1.58569">
        <ele>61.9</ele>
        <time>2014-11-03T14:42:40Z</time>
      </trkpt>
      <trkpt lat="49.4954" lon="-1.58555">
        <ele>61.7</ele>
        <time>2014-11-03T14:42:46Z</time>
      </trkpt>
      <trkpt lat="49.49537" lon="-1.58542">
        <ele>61</ele>
        <time>2014-11-03T14:42:53Z</time>
      </trkpt>
      <trkpt lat="49.49535" lon="-1.58527">
        <ele>60.5</ele>
        <time>2014-11-03T14:43:00Z</time>
      </trkpt>
      <trkpt lat="49.49533" lon="-1.58513">
        <ele>60.4</ele>
        <time>2014-11-03T14:43:06Z</time>
      </trkpt>
      <trkpt lat="49.4953" lon="-1.58498">
        <ele>59.6</ele>
        <time>2014-11-03T14:43:14Z</time>
      </trkpt>
      <trkpt lat="49.49529" lon="-1.58484">
        <ele>59.7</ele>
        <time>2014-11-03T14:43:22Z</time>
      </trkpt>
      <trkpt lat="49.49529" lon="-1.58469">
        <ele>58.9</ele>
        <time>2014-11-03T14:43:31Z</time>
      </trkpt>
      <trkpt lat="49.49527" lon="-1.58453">
        <ele>58.8</ele>
        <time>2014-11-03T14:43:39Z</time>
      </trkpt>
      <trkpt lat="49.49524" lon="-1.58439">
        <ele>58.6</ele>
        <time>2014-11-03T14:43:46Z</time>
      </trkpt>
      <trkpt lat="49.49523" lon="-1.58423">
        <ele>58.3</ele>
        <time>2014-11-03T14:43:54Z</time>
      </trkpt>
      <trkpt lat="49.49518" lon="-1.5841">
        <ele>57.4</ele>
        <time>2014-11-03T14:44:03Z</time>
      </trkpt>
      <trkpt lat="49.49516" lon="-1.58396">
        <ele>57.1</ele>
        <time>2014-11-03T14:44:10Z</time>
      </trkpt>
      <trkpt lat="49.49513" lon="-1.58382">
        <ele>56.9</ele>
        <time>2014-11-03T14:44:18Z</time>
      </trkpt>
      <trkpt lat="49.4951" lon="-1.58368">
        <ele>56.2</ele>
        <time>2014-11-03T14:44:25Z</time>
      </trkpt>
      <trkpt lat="49.4951" lon="-1.58352">
        <ele>56.1</ele>
        <time>2014-11-03T14:44:32Z</time>
      </trkpt>
      <trkpt lat="49.49511" lon="-1.58338">
        <ele>55.8</ele>
        <time>2014-11-03T14:44:39Z</time>
      </trkpt>
      <trkpt lat="49.49518" lon="-1.58327">
        <ele>55.4</ele>
        <time>2014-11-03T14:44:47Z</time>
      </trkpt>
      <trkpt lat="49.49525" lon="-1.58317">
        <ele>56</ele>
        <time>2014-11-03T14:44:57Z</time>
      </trkpt>
      <trkpt lat="49.49532" lon="-1.58306">
        <ele>55.5</ele>
        <time>2014-11-03T14:45:05Z</time>
      </trkpt>
      <trkpt lat="49.49539" lon="-1.58296">
        <ele>55.3</ele>
        <time>2014-11-03T14:45:13Z</time>
      </trkpt>
      <trkpt lat="49.49544" lon="-1.58283">
        <ele>55.2</ele>
        <time>2014-11-03T14:45:21Z</time>
      </trkpt>
      <trkpt lat="49.49549" lon="-1.58271">
        <ele>55.3</ele>
        <time>2014-11-03T14:45:28Z</time>
      </trkpt>
      <trkpt lat="49.49557" lon="-1.58263">
        <ele>55.3</ele>
        <time>2014-11-03T14:45:34Z</time>
      </trkpt>
      <trkpt lat="49.49564" lon="-1.58252">
        <ele>55.1</ele>
        <time>2014-11-03T14:45:42Z</time>
      </trkpt>
      <trkpt lat="49.4957" lon="-1.58242">
        <ele>55</ele>
        <time>2014-11-03T14:45:49Z</time>
      </trkpt>
      <trkpt lat="49.49578" lon="-1.58233">
        <ele>54.6</ele>
        <time>2014-11-03T14:45:58Z</time>
      </trkpt>
      <trkpt lat="49.49586" lon="-1.58224">
        <ele>54.3</ele>
        <time>2014-11-03T14:46:07Z</time>
      </trkpt>
      <trkpt lat="49.49591" lon="-1.58213">
        <ele>54.5</ele>
        <time>2014-11-03T14:46:14Z</time>
      </trkpt>
      <trkpt lat="49.49598" lon="-1.58202">
        <ele>53.9</ele>
        <time>2014-11-03T14:46:23Z</time>
      </trkpt>
      <trkpt lat="49.49606" lon="-1.58195">
        <ele>53.1</ele>
        <time>2014-11-03T14:46:30Z</time>
      </trkpt>
      <trkpt lat="49.49614" lon="-1.58188">
        <ele>52.6</ele>
        <time>2014-11-03T14:46:39Z</time>
      </trkpt>
      <trkpt lat="49.49623" lon="-1.58178">
        <ele>52.6</ele>
        <time>2014-11-03T14:46:47Z</time>
      </trkpt>
      <trkpt lat="49.49631" lon="-1.58172">
        <ele>52.8</ele>
        <time>2014-11-03T14:46:54Z</time>
      </trkpt>
      <trkpt lat="49.49639" lon="-1.58163">
        <ele>52.3</ele>
        <time>2014-11-03T14:47:04Z</time>
      </trkpt>
      <trkpt lat="49.49647" lon="-1.58155">
        <ele>52.1</ele>
        <time>2014-11-03T14:47:16Z</time>
      </trkpt>
      <trkpt lat="49.49657" lon="-1.58153">
        <ele>52.5</ele>
        <time>2014-11-03T14:47:23Z</time>
      </trkpt>
      <trkpt lat="49.49666" lon="-1.5815">
        <ele>52.7</ele>
        <time>2014-11-03T14:47:30Z</time>
      </trkpt>
      <trkpt lat="49.49675" lon="-1.58142">
        <ele>53</ele>
        <time>2014-11-03T14:47:37Z</time>
      </trkpt>
      <trkpt lat="49.49681" lon="-1.5813">
        <ele>52.7</ele>
        <time>2014-11-03T14:47:49Z</time>
      </trkpt>
      <trkpt lat="49.49687" lon="-1.5812">
        <ele>52.4</ele>
        <time>2014-11-03T14:47:58Z</time>
      </trkpt>
      <trkpt lat="49.49696" lon="-1.58115">
        <ele>53</ele>
        <time>2014-11-03T14:48:05Z</time>
      </trkpt>
      <trkpt lat="49.49705" lon="-1.5811">
        <ele>53.1</ele>
        <time>2014-11-03T14:48:11Z</time>
      </trkpt>
      <trkpt lat="49.49714" lon="-1.58104">
        <ele>53.3</ele>
        <time>2014-11-03T14:48:17Z</time>
      </trkpt>
      <trkpt lat="49.49723" lon="-1.58101">
        <ele>52.9</ele>
        <time>2014-11-03T14:48:24Z</time>
      </trkpt>
      <trkpt lat="49.49732" lon="-1.58094">
        <ele>53.1</ele>
        <time>2014-11-03T14:48:33Z</time>
      </trkpt>
      <trkpt lat="49.49741" lon="-1.58093">
        <ele>53.3</ele>
        <time>2014-11-03T14:48:41Z</time>
      </trkpt>
      <trkpt lat="49.4975" lon="-1.58092">
        <ele>53.2</ele>
        <time>2014-11-03T14:48:50Z</time>
      </trkpt>
      <trkpt lat="49.49763" lon="-1.58093">
        <ele>52.8</ele>
        <time>2014-11-03T14:48:55Z</time>
      </trkpt>
      <trkpt lat="49.49773" lon="-1.58091">
        <ele>52.5</ele>
        <time>2014-11-03T14:49:02Z</time>
      </trkpt>
      <trkpt lat="49.4978" lon="-1.58081">
        <ele>51.7</ele>
        <time>2014-11-03T14:49:12Z</time>
      </trkpt>
      <trkpt lat="49.49779" lon="-1.58066">
        <ele>50.9</ele>
        <time>2014-11-03T14:49:24Z</time>
      </trkpt>
      <trkpt lat="49.49778" lon="-1.58052">
        <ele>50.7</ele>
        <time>2014-11-03T14:49:32Z</time>
      </trkpt>
      <trkpt lat="49.4977" lon="-1.58043">
        <ele>50.4</ele>
        <time>2014-11-03T14:49:42Z</time>
      </trkpt>
      <trkpt lat="49.4976" lon="-1.58043">
        <ele>49.8</ele>
        <time>2014-11-03T14:49:57Z</time>
      </trkpt>
      <trkpt lat="49.49752" lon="-1.5805">
        <ele>50.5</ele>
        <time>2014-11-03T14:50:08Z</time>
      </trkpt>
      <trkpt lat="49.49743" lon="-1.58054">
        <ele>50.9</ele>
        <time>2014-11-03T14:50:20Z</time>
      </trkpt>
      <trkpt lat="49.49734" lon="-1.58049">
        <ele>51.1</ele>
        <time>2014-11-03T14:50:29Z</time>
      </trkpt>
      <trkpt lat="49.49729" lon="-1.58037">
        <ele>50.8</ele>
        <time>2014-11-03T14:50:35Z</time>
      </trkpt>
      <trkpt lat="49.49728" lon="-1.58023">
        <ele>51</ele>
        <time>2014-11-03T14:50:46Z</time>
      </trkpt>
      <trkpt lat="49.49724" lon="-1.58011">
        <ele>50.1</ele>
        <time>2014-11-03T14:51:14Z</time>
      </trkpt>
      <trkpt lat="49.49728" lon="-1.57998">
        <ele>49.6</ele>
        <time>2014-11-03T14:53:56Z</time>
      </trkpt>
      <trkpt lat="49.49724" lon="-1.57984">
        <ele>49</ele>
        <time>2014-11-03T14:54:21Z</time>
      </trkpt>
      <trkpt lat="49.49723" lon="-1.57967">
        <ele>46.4</ele>
        <time>2014-11-03T15:04:28Z</time>
      </trkpt>
      <trkpt lat="49.49721" lon="-1.57953">
        <ele>46.1</ele>
        <time>2014-11-03T15:04:41Z</time>
      </trkpt>
      <trkpt lat="49.49721" lon="-1.57938">
        <ele>46.3</ele>
        <time>2014-11-03T15:05:31Z</time>
      </trkpt>
      <trkpt lat="49.49719" lon="-1.57923">
        <ele>46</ele>
        <time>2014-11-03T15:05:45Z</time>
      </trkpt>
      <trkpt lat="49.49719" lon="-1.57909">
        <ele>45.6</ele>
        <time>2014-11-03T15:06:18Z</time>
      </trkpt>
      <trkpt lat="49.49723" lon="-1.57895">
        <ele>44.7</ele>
        <time>2014-11-03T15:06:39Z</time>
      </trkpt>
      <trkpt lat="49.49729" lon="-1.57884">
        <ele>44.6</ele>
        <time>2014-11-03T15:06:49Z</time>
      </trkpt>
      <trkpt lat="49.49738" lon="-1.57881">
        <ele>45</ele>
        <time>2014-11-03T15:07:02Z</time>
      </trkpt>
      <trkpt lat="49.49747" lon="-1.57878">
        <ele>44.9</ele>
        <time>2014-11-03T15:07:13Z</time>
      </trkpt>
      <trkpt lat="49.49757" lon="-1.57876">
        <ele>44.3</ele>
        <time>2014-11-03T15:07:26Z</time>
      </trkpt>
      <trkpt lat="49.49771" lon="-1.57866">
        <ele>43.1</ele>
        <time>2014-11-03T15:07:56Z</time>
      </trkpt>
      <trkpt lat="49.49772" lon="-1.57851">
        <ele>43.1</ele>
        <time>2014-11-03T15:08:10Z</time>
      </trkpt>
      <trkpt lat="49.49776" lon="-1.57837">
        <ele>43</ele>
        <time>2014-11-03T15:08:17Z</time>
      </trkpt>
      <trkpt lat="49.49779" lon="-1.57823">
        <ele>42.1</ele>
        <time>2014-11-03T15:08:25Z</time>
      </trkpt>
      <trkpt lat="49.49785" lon="-1.5781">
        <ele>42.2</ele>
        <time>2014-11-03T15:08:35Z</time>
      </trkpt>
      <trkpt lat="49.4979" lon="-1.57798">
        <ele>41.3</ele>
        <time>2014-11-03T15:08:49Z</time>
      </trkpt>
      <trkpt lat="49.49798" lon="-1.57793">
        <ele>41.1</ele>
        <time>2014-11-03T15:09:01Z</time>
      </trkpt>
      <trkpt lat="49.49806" lon="-1.57783">
        <ele>40.4</ele>
        <time>2014-11-03T15:09:11Z</time>
      </trkpt>
      <trkpt lat="49.49811" lon="-1.57771">
        <ele>40.3</ele>
        <time>2014-11-03T15:09:22Z</time>
      </trkpt>
      <trkpt lat="49.49816" lon="-1.57758">
        <ele>39.9</ele>
        <time>2014-11-03T15:09:31Z</time>
      </trkpt>
      <trkpt lat="49.49819" lon="-1.57742">
        <ele>39</ele>
        <time>2014-11-03T15:09:39Z</time>
      </trkpt>
      <trkpt lat="49.49822" lon="-1.57729">
        <ele>39</ele>
        <time>2014-11-03T15:09:45Z</time>
      </trkpt>
      <trkpt lat="49.49826" lon="-1.57716">
        <ele>38.7</ele>
        <time>2014-11-03T15:09:54Z</time>
      </trkpt>
      <trkpt lat="49.49831" lon="-1.57702">
        <ele>37.6</ele>
        <time>2014-11-03T15:10:03Z</time>
      </trkpt>
      <trkpt lat="49.49837" lon="-1.57689">
        <ele>36.9</ele>
        <time>2014-11-03T15:10:11Z</time>
      </trkpt>
      <trkpt lat="49.49842" lon="-1.57677">
        <ele>35.7</ele>
        <time>2014-11-03T15:10:22Z</time>
      </trkpt>
      <trkpt lat="49.49847" lon="-1.57664">
        <ele>34.7</ele>
        <time>2014-11-03T15:10:33Z</time>
      </trkpt>
      <trkpt lat="49.4985" lon="-1.5765">
        <ele>34.1</ele>
        <time>2014-11-03T15:10:44Z</time>
      </trkpt>
      <trkpt lat="49.49853" lon="-1.57637">
        <ele>32.8</ele>
        <time>2014-11-03T15:11:00Z</time>
      </trkpt>
      <trkpt lat="49.49859" lon="-1.57626">
        <ele>31.8</ele>
        <time>2014-11-03T15:11:11Z</time>
      </trkpt>
      <trkpt lat="49.49863" lon="-1.57614">
        <ele>31</ele>
        <time>2014-11-03T15:11:21Z</time>
      </trkpt>
      <trkpt lat="49.49868" lon="-1.57602">
        <ele>30.1</ele>
        <time>2014-11-03T15:11:33Z</time>
      </trkpt>
      <trkpt lat="49.49878" lon="-1.57602">
        <ele>28.8</ele>
        <time>2014-11-03T15:11:44Z</time>
      </trkpt>
      <trkpt lat="49.49887" lon="-1.57607">
        <ele>27.7</ele>
        <time>2014-11-03T15:11:57Z</time>
      </trkpt>
      <trkpt lat="49.49896" lon="-1.57614">
        <ele>27</ele>
        <time>2014-11-03T15:12:04Z</time>
      </trkpt>
      <trkpt lat="49.49904" lon="-1.57635">
        <ele>27.1</ele>
        <time>2014-11-03T15:12:38Z</time>
      </trkpt>
      <trkpt lat="49.49911" lon="-1.57645">
        <ele>27.1</ele>
        <time>2014-11-03T15:12:52Z</time>
      </trkpt>
      <trkpt lat="49.49911" lon="-1.5766">
        <ele>27.2</ele>
        <time>2014-11-03T15:13:02Z</time>
      </trkpt>
      <trkpt lat="49.49914" lon="-1.57674">
        <ele>26.6</ele>
        <time>2014-11-03T15:13:14Z</time>
      </trkpt>
      <trkpt lat="49.49916" lon="-1.57687">
        <ele>26.2</ele>
        <time>2014-11-03T15:13:24Z</time>
      </trkpt>
      <trkpt lat="49.49922" lon="-1.577">
        <ele>25.6</ele>
        <time>2014-11-03T15:13:33Z</time>
      </trkpt>
      <trkpt lat="49.49927" lon="-1.57712">
        <ele>24.8</ele>
        <time>2014-11-03T15:13:42Z</time>
      </trkpt>
      <trkpt lat="49.49931" lon="-1.57725">
        <ele>23.6</ele>
        <time>2014-11-03T15:14:00Z</time>
      </trkpt>
      <trkpt lat="49.49935" lon="-1.57737">
        <ele>22.5</ele>
        <time>2014-11-03T15:15:11Z</time>
      </trkpt>
      <trkpt lat="49.4995" lon="-1.57775">
        <ele>22</ele>
        <time>2014-11-03T15:17:01Z</time>
      </trkpt>
      <trkpt lat="49.49958" lon="-1.57784">
        <ele>23.3</ele>
        <time>2014-11-03T15:17:23Z</time>
      </trkpt>
      <trkpt lat="49.49967" lon="-1.57787">
        <ele>24.4</ele>
        <time>2014-11-03T15:17:37Z</time>
      </trkpt>
      <trkpt lat="49.49975" lon="-1.57794">
        <ele>25.5</ele>
        <time>2014-11-03T15:17:51Z</time>
      </trkpt>
      <trkpt lat="49.49984" lon="-1.5779">
        <ele>25.6</ele>
        <time>2014-11-03T15:18:06Z</time>
      </trkpt>
      <trkpt lat="49.49995" lon="-1.57789">
        <ele>27.4</ele>
        <time>2014-11-03T15:18:31Z</time>
      </trkpt>
      <trkpt lat="49.50005" lon="-1.57792">
        <ele>28.4</ele>
        <time>2014-11-03T15:18:45Z</time>
      </trkpt>
      <trkpt lat="49.50014" lon="-1.57787">
        <ele>29.1</ele>
        <time>2014-11-03T15:18:57Z</time>
      </trkpt>
      <trkpt lat="49.50023" lon="-1.57791">
        <ele>31</ele>
        <time>2014-11-03T15:19:09Z</time>
      </trkpt>
      <trkpt lat="49.50016" lon="-1.57802">
        <ele>31.8</ele>
        <time>2014-11-03T15:19:30Z</time>
      </trkpt>
      <trkpt lat="49.50013" lon="-1.57815">
        <ele>32.5</ele>
        <time>2014-11-03T15:19:38Z</time>
      </trkpt>
      <trkpt lat="49.5001" lon="-1.5783">
        <ele>33.6</ele>
        <time>2014-11-03T15:19:47Z</time>
      </trkpt>
      <trkpt lat="49.50004" lon="-1.57842">
        <ele>34.5</ele>
        <time>2014-11-03T15:19:54Z</time>
      </trkpt>
      <trkpt lat="49.50001" lon="-1.57855">
        <ele>35.6</ele>
        <time>2014-11-03T15:20:02Z</time>
      </trkpt>
      <trkpt lat="49.49998" lon="-1.57868">
        <ele>36.1</ele>
        <time>2014-11-03T15:20:06Z</time>
      </trkpt>
      <trkpt lat="49.49992" lon="-1.57879">
        <ele>37.4</ele>
        <time>2014-11-03T15:20:15Z</time>
      </trkpt>
      <trkpt lat="49.49987" lon="-1.57892">
        <ele>38.5</ele>
        <time>2014-11-03T15:20:25Z</time>
      </trkpt>
      <trkpt lat="49.4998" lon="-1.57901">
        <ele>39.9</ele>
        <time>2014-11-03T15:20:54Z</time>
      </trkpt>
      <trkpt lat="49.49977" lon="-1.57914">
        <ele>40.7</ele>
        <time>2014-11-03T15:21:03Z</time>
      </trkpt>
      <trkpt lat="49.49973" lon="-1.57928">
        <ele>41</ele>
        <time>2014-11-03T15:21:13Z</time>
      </trkpt>
      <trkpt lat="49.49968" lon="-1.57941">
        <ele>41.6</ele>
        <time>2014-11-03T15:21:23Z</time>
      </trkpt>
      <trkpt lat="49.49963" lon="-1.57953">
        <ele>42.8</ele>
        <time>2014-11-03T15:21:37Z</time>
      </trkpt>
      <trkpt lat="49.49956" lon="-1.57964">
        <ele>43.6</ele>
        <time>2014-11-03T15:21:47Z</time>
      </trkpt>
      <trkpt lat="49.49954" lon="-1.57978">
        <ele>44.8</ele>
        <time>2014-11-03T15:22:00Z</time>
      </trkpt>
      <trkpt lat="49.4995" lon="-1.5799">
        <ele>46.3</ele>
        <time>2014-11-03T15:22:12Z</time>
      </trkpt>
      <trkpt lat="49.49945" lon="-1.58003">
        <ele>47.6</ele>
        <time>2014-11-03T15:22:21Z</time>
      </trkpt>
      <trkpt lat="49.4994" lon="-1.58017">
        <ele>48.7</ele>
        <time>2014-11-03T15:22:28Z</time>
      </trkpt>
      <trkpt lat="49.49938" lon="-1.58031">
        <ele>50.5</ele>
        <time>2014-11-03T15:22:39Z</time>
      </trkpt>
      <trkpt lat="49.49935" lon="-1.58045">
        <ele>51.5</ele>
        <time>2014-11-03T15:22:48Z</time>
      </trkpt>
      <trkpt lat="49.49931" lon="-1.58059">
        <ele>51.9</ele>
        <time>2014-11-03T15:22:56Z</time>
      </trkpt>
      <trkpt lat="49.49923" lon="-1.58069">
        <ele>52.3</ele>
        <time>2014-11-03T15:23:01Z</time>
      </trkpt>
      <trkpt lat="49.49918" lon="-1.58081">
        <ele>52.6</ele>
        <time>2014-11-03T15:23:09Z</time>
      </trkpt>
      <trkpt lat="49.49912" lon="-1.58094">
        <ele>53.8</ele>
        <time>2014-11-03T15:23:19Z</time>
      </trkpt>
      <trkpt lat="49.49908" lon="-1.58108">
        <ele>54.4</ele>
        <time>2014-11-03T15:23:28Z</time>
      </trkpt>
      <trkpt lat="49.49903" lon="-1.58119">
        <ele>54.5</ele>
        <time>2014-11-03T15:23:37Z</time>
      </trkpt>
      <trkpt lat="49.49899" lon="-1.58133">
        <ele>54.6</ele>
        <time>2014-11-03T15:23:43Z</time>
      </trkpt>
      <trkpt lat="49.49892" lon="-1.58143">
        <ele>54.8</ele>
        <time>2014-11-03T15:23:54Z</time>
      </trkpt>
      <trkpt lat="49.49884" lon="-1.58152">
        <ele>55.6</ele>
        <time>2014-11-03T15:24:05Z</time>
      </trkpt>
      <trkpt lat="49.49876" lon="-1.58161">
        <ele>56.4</ele>
        <time>2014-11-03T15:24:15Z</time>
      </trkpt>
      <trkpt lat="49.49867" lon="-1.58168">
        <ele>56.6</ele>
        <time>2014-11-03T15:24:22Z</time>
      </trkpt>
      <trkpt lat="49.49857" lon="-1.58169">
        <ele>56.4</ele>
        <time>2014-11-03T15:24:31Z</time>
      </trkpt>
      <trkpt lat="49.49848" lon="-1.58169">
        <ele>56.3</ele>
        <time>2014-11-03T15:24:39Z</time>
      </trkpt>
      <trkpt lat="49.49839" lon="-1.58174">
        <ele>56</ele>
        <time>2014-11-03T15:24:47Z</time>
      </trkpt>
      <trkpt lat="49.49834" lon="-1.58185">
        <ele>56.8</ele>
        <time>2014-11-03T15:25:03Z</time>
      </trkpt>
      <trkpt lat="49.4983" lon="-1.5817">
        <ele>57</ele>
        <time>2014-11-03T15:25:20Z</time>
      </trkpt>
      <trkpt lat="49.49826" lon="-1.58156">
        <ele>56</ele>
        <time>2014-11-03T15:25:28Z</time>
      </trkpt>
      <trkpt lat="49.49821" lon="-1.58144">
        <ele>55.4</ele>
        <time>2014-11-03T15:25:36Z</time>
      </trkpt>
      <trkpt lat="49.49815" lon="-1.58133">
        <ele>55.2</ele>
        <time>2014-11-03T15:25:44Z</time>
      </trkpt>
      <trkpt lat="49.49807" lon="-1.58122">
        <ele>54.8</ele>
        <time>2014-11-03T15:25:51Z</time>
      </trkpt>
      <trkpt lat="49.498" lon="-1.58112">
        <ele>54.5</ele>
        <time>2014-11-03T15:25:58Z</time>
      </trkpt>
      <trkpt lat="49.49793" lon="-1.58103">
        <ele>54.2</ele>
        <time>2014-11-03T15:26:06Z</time>
      </trkpt>
      <trkpt lat="49.49784" lon="-1.58095">
        <ele>54.3</ele>
        <time>2014-11-03T15:26:16Z</time>
      </trkpt>
      <trkpt lat="49.49775" lon="-1.5809">
        <ele>54.5</ele>
        <time>2014-11-03T15:26:25Z</time>
      </trkpt>
      <trkpt lat="49.49766" lon="-1.58089">
        <ele>54.8</ele>
        <time>2014-11-03T15:26:31Z</time>
      </trkpt>
      <trkpt lat="49.49757" lon="-1.58087">
        <ele>55.2</ele>
        <time>2014-11-03T15:26:38Z</time>
      </trkpt>
      <trkpt lat="49.49747" lon="-1.58089">
        <ele>55.8</ele>
        <time>2014-11-03T15:26:47Z</time>
      </trkpt>
      <trkpt lat="49.49737" lon="-1.58094">
        <ele>56.4</ele>
        <time>2014-11-03T15:26:57Z</time>
      </trkpt>
      <trkpt lat="49.49728" lon="-1.58095">
        <ele>56.6</ele>
        <time>2014-11-03T15:27:02Z</time>
      </trkpt>
      <trkpt lat="49.49719" lon="-1.58102">
        <ele>56.8</ele>
        <time>2014-11-03T15:27:10Z</time>
      </trkpt>
      <trkpt lat="49.49709" lon="-1.58106">
        <ele>57</ele>
        <time>2014-11-03T15:27:15Z</time>
      </trkpt>
      <trkpt lat="49.49701" lon="-1.58113">
        <ele>56.8</ele>
        <time>2014-11-03T15:27:22Z</time>
      </trkpt>
      <trkpt lat="49.49692" lon="-1.58118">
        <ele>56.9</ele>
        <time>2014-11-03T15:27:27Z</time>
      </trkpt>
      <trkpt lat="49.49684" lon="-1.58128">
        <ele>57.5</ele>
        <time>2014-11-03T15:27:35Z</time>
      </trkpt>
      <trkpt lat="49.49676" lon="-1.58137">
        <ele>57.5</ele>
        <time>2014-11-03T15:27:44Z</time>
      </trkpt>
      <trkpt lat="49.49668" lon="-1.58145">
        <ele>57.8</ele>
        <time>2014-11-03T15:27:52Z</time>
      </trkpt>
      <trkpt lat="49.4966" lon="-1.58153">
        <ele>57.9</ele>
        <time>2014-11-03T15:27:59Z</time>
      </trkpt>
      <trkpt lat="49.4965" lon="-1.58156">
        <ele>57.8</ele>
        <time>2014-11-03T15:28:05Z</time>
      </trkpt>
      <trkpt lat="49.4964" lon="-1.58159">
        <ele>57.9</ele>
        <time>2014-11-03T15:28:11Z</time>
      </trkpt>
      <trkpt lat="49.49631" lon="-1.58166">
        <ele>58</ele>
        <time>2014-11-03T15:28:17Z</time>
      </trkpt>
      <trkpt lat="49.49623" lon="-1.58173">
        <ele>57.9</ele>
        <time>2014-11-03T15:28:24Z</time>
      </trkpt>
      <trkpt lat="49.49614" lon="-1.58181">
        <ele>57.7</ele>
        <time>2014-11-03T15:28:33Z</time>
      </trkpt>
      <trkpt lat="49.49606" lon="-1.58189">
        <ele>58.3</ele>
        <time>2014-11-03T15:28:41Z</time>
      </trkpt>
      <trkpt lat="49.49598" lon="-1.58198">
        <ele>59</ele>
        <time>2014-11-03T15:28:50Z</time>
      </trkpt>
      <trkpt lat="49.49591" lon="-1.58207">
        <ele>59.5</ele>
        <time>2014-11-03T15:28:59Z</time>
      </trkpt>
      <trkpt lat="49.49585" lon="-1.58218">
        <ele>60</ele>
        <time>2014-11-03T15:29:06Z</time>
      </trkpt>
      <trkpt lat="49.49577" lon="-1.58228">
        <ele>60.7</ele>
        <time>2014-11-03T15:29:14Z</time>
      </trkpt>
      <trkpt lat="49.49569" lon="-1.58237">
        <ele>61</ele>
        <time>2014-11-03T15:29:21Z</time>
      </trkpt>
      <trkpt lat="49.49562" lon="-1.58246">
        <ele>61</ele>
        <time>2014-11-03T15:29:29Z</time>
      </trkpt>
      <trkpt lat="49.49555" lon="-1.58258">
        <ele>61.2</ele>
        <time>2014-11-03T15:29:35Z</time>
      </trkpt>
      <trkpt lat="49.49548" lon="-1.5827">
        <ele>61.7</ele>
        <time>2014-11-03T15:29:42Z</time>
      </trkpt>
      <trkpt lat="49.49543" lon="-1.58282">
        <ele>62</ele>
        <time>2014-11-03T15:29:50Z</time>
      </trkpt>
      <trkpt lat="49.49537" lon="-1.58293">
        <ele>62.2</ele>
        <time>2014-11-03T15:29:58Z</time>
      </trkpt>
      <trkpt lat="49.49532" lon="-1.58306">
        <ele>62.8</ele>
        <time>2014-11-03T15:30:05Z</time>
      </trkpt>
      <trkpt lat="49.49525" lon="-1.58317">
        <ele>63.2</ele>
        <time>2014-11-03T15:30:13Z</time>
      </trkpt>
      <trkpt lat="49.49519" lon="-1.58328">
        <ele>63.2</ele>
        <time>2014-11-03T15:30:19Z</time>
      </trkpt>
      <trkpt lat="49.49514" lon="-1.58342">
        <ele>63</ele>
        <time>2014-11-03T15:30:25Z</time>
      </trkpt>
      <trkpt lat="49.49513" lon="-1.58357">
        <ele>63.2</ele>
        <time>2014-11-03T15:30:32Z</time>
      </trkpt>
      <trkpt lat="49.49513" lon="-1.58372">
        <ele>63.8</ele>
        <time>2014-11-03T15:30:39Z</time>
      </trkpt>
      <trkpt lat="49.49513" lon="-1.58387">
        <ele>63.9</ele>
        <time>2014-11-03T15:30:46Z</time>
      </trkpt>
      <trkpt lat="49.49518" lon="-1.58401">
        <ele>64.4</ele>
        <time>2014-11-03T15:30:54Z</time>
      </trkpt>
      <trkpt lat="49.49519" lon="-1.58415">
        <ele>64.8</ele>
        <time>2014-11-03T15:31:02Z</time>
      </trkpt>
      <trkpt lat="49.49522" lon="-1.58429">
        <ele>64.9</ele>
        <time>2014-11-03T15:31:10Z</time>
      </trkpt>
      <trkpt lat="49.49525" lon="-1.58443">
        <ele>65.7</ele>
        <time>2014-11-03T15:31:20Z</time>
      </trkpt>
      <trkpt lat="49.49527" lon="-1.58458">
        <ele>66.1</ele>
        <time>2014-11-03T15:31:27Z</time>
      </trkpt>
      <trkpt lat="49.49529" lon="-1.58472">
        <ele>66.4</ele>
        <time>2014-11-03T15:31:33Z</time>
      </trkpt>
      <trkpt lat="49.49532" lon="-1.58488">
        <ele>66.5</ele>
        <time>2014-11-03T15:31:40Z</time>
      </trkpt>
      <trkpt lat="49.49535" lon="-1.58502">
        <ele>67</ele>
        <time>2014-11-03T15:31:47Z</time>
      </trkpt>
      <trkpt lat="49.49538" lon="-1.58516">
        <ele>67.1</ele>
        <time>2014-11-03T15:31:56Z</time>
      </trkpt>
      <trkpt lat="49.4954" lon="-1.5853">
        <ele>67.5</ele>
        <time>2014-11-03T15:32:04Z</time>
      </trkpt>
      <trkpt lat="49.49544" lon="-1.58544">
        <ele>68</ele>
        <time>2014-11-03T15:32:13Z</time>
      </trkpt>
      <trkpt lat="49.49549" lon="-1.58557">
        <ele>68.5</ele>
        <time>2014-11-03T15:32:22Z</time>
      </trkpt>
      <trkpt lat="49.49551" lon="-1.58571">
        <ele>68.7</ele>
        <time>2014-11-03T15:32:30Z</time>
      </trkpt>
      <trkpt lat="49.49555" lon="-1.58584">
        <ele>69.3</ele>
        <time>2014-11-03T15:32:35Z</time>
      </trkpt>
      <trkpt lat="49.49559" lon="-1.58597">
        <ele>69.2</ele>
        <time>2014-11-03T15:32:41Z</time>
      </trkpt>
      <trkpt lat="49.49561" lon="-1.58611">
        <ele>69.8</ele>
        <time>2014-11-03T15:32:48Z</time>
      </trkpt>
      <trkpt lat="49.49566" lon="-1.58624">
        <ele>70.6</ele>
        <time>2014-11-03T15:32:57Z</time>
      </trkpt>
      <trkpt lat="49.49568" lon="-1.58638">
        <ele>71.2</ele>
        <time>2014-11-03T15:33:04Z</time>
      </trkpt>
      <trkpt lat="49.49571" lon="-1.58653">
        <ele>72.2</ele>
        <time>2014-11-03T15:33:12Z</time>
      </trkpt>
      <trkpt lat="49.49576" lon="-1.58666">
        <ele>72.9</ele>
        <time>2014-11-03T15:33:20Z</time>
      </trkpt>
      <trkpt lat="49.49581" lon="-1.58678">
        <ele>73.8</ele>
        <time>2014-11-03T15:33:28Z</time>
      </trkpt>
      <trkpt lat="49.49588" lon="-1.58691">
        <ele>74.6</ele>
        <time>2014-11-03T15:33:37Z</time>
      </trkpt>
      <trkpt lat="49.49594" lon="-1.58702">
        <ele>75.7</ele>
        <time>2014-11-03T15:33:44Z</time>
      </trkpt>
      <trkpt lat="49.49599" lon="-1.58716">
        <ele>76.2</ele>
        <time>2014-11-03T15:33:51Z</time>
      </trkpt>
      <trkpt lat="49.49603" lon="-1.58728">
        <ele>77.2</ele>
        <time>2014-11-03T15:33:58Z</time>
      </trkpt>
      <trkpt lat="49.49606" lon="-1.58742">
        <ele>78</ele>
        <time>2014-11-03T15:34:06Z</time>
      </trkpt>
      <trkpt lat="49.49611" lon="-1.58755">
        <ele>78.7</ele>
        <time>2014-11-03T15:34:13Z</time>
      </trkpt>
      <trkpt lat="49.49613" lon="-1.5877">
        <ele>79.8</ele>
        <time>2014-11-03T15:34:21Z</time>
      </trkpt>
      <trkpt lat="49.49617" lon="-1.58782">
        <ele>80.7</ele>
        <time>2014-11-03T15:34:29Z</time>
      </trkpt>
      <trkpt lat="49.4962" lon="-1.58796">
        <ele>81.8</ele>
        <time>2014-11-03T15:34:37Z</time>
      </trkpt>
      <trkpt lat="49.49625" lon="-1.58807">
        <ele>83.1</ele>
        <time>2014-11-03T15:34:48Z</time>
      </trkpt>
      <trkpt lat="49.49629" lon="-1.5882">
        <ele>83.4</ele>
        <time>2014-11-03T15:34:59Z</time>
      </trkpt>
      <trkpt lat="49.49632" lon="-1.58833">
        <ele>84.6</ele>
        <time>2014-11-03T15:35:44Z</time>
      </trkpt>
      <trkpt lat="49.49635" lon="-1.58847">
        <ele>85.2</ele>
        <time>2014-11-03T15:37:51Z</time>
      </trkpt>
      <trkpt lat="49.49638" lon="-1.58862">
        <ele>85.9</ele>
        <time>2014-11-03T15:38:02Z</time>
      </trkpt>
      <trkpt lat="49.49641" lon="-1.58876">
        <ele>85.3</ele>
        <time>2014-11-03T15:38:10Z</time>
      </trkpt>
      <trkpt lat="49.4964" lon="-1.58892">
        <ele>86.2</ele>
        <time>2014-11-03T15:38:18Z</time>
      </trkpt>
      <trkpt lat="49.49642" lon="-1.58906">
        <ele>86.2</ele>
        <time>2014-11-03T15:38:28Z</time>
      </trkpt>
      <trkpt lat="49.49645" lon="-1.5892">
        <ele>85.6</ele>
        <time>2014-11-03T15:38:38Z</time>
      </trkpt>
      <trkpt lat="49.4965" lon="-1.58933">
        <ele>85</ele>
        <time>2014-11-03T15:38:46Z</time>
      </trkpt>
      <trkpt lat="49.49654" lon="-1.58946">
        <ele>81.8</ele>
        <time>2014-11-03T15:38:55Z</time>
      </trkpt>
      <trkpt lat="49.4966" lon="-1.58957">
        <ele>83.7</ele>
        <time>2014-11-03T15:39:04Z</time>
      </trkpt>
      <trkpt lat="49.49668" lon="-1.58966">
        <ele>82.7</ele>
        <time>2014-11-03T15:39:11Z</time>
      </trkpt>
      <trkpt lat="49.49674" lon="-1.58977">
        <ele>82.4</ele>
        <time>2014-11-03T15:39:21Z</time>
      </trkpt>
      <trkpt lat="49.49681" lon="-1.58986">
        <ele>81.8</ele>
        <time>2014-11-03T15:39:31Z</time>
      </trkpt>
      <trkpt lat="49.4969" lon="-1.58992">
        <ele>80.9</ele>
        <time>2014-11-03T15:39:40Z</time>
      </trkpt>
      <trkpt lat="49.49699" lon="-1.58997">
        <ele>80.2</ele>
        <time>2014-11-03T15:39:49Z</time>
      </trkpt>
      <trkpt lat="49.49707" lon="-1.59003">
        <ele>80.1</ele>
        <time>2014-11-03T15:39:56Z</time>
      </trkpt>
      <trkpt lat="49.49716" lon="-1.59013">
        <ele>79.7</ele>
        <time>2014-11-03T15:40:03Z</time>
      </trkpt>
      <trkpt lat="49.49725" lon="-1.59021">
        <ele>80</ele>
        <time>2014-11-03T15:40:10Z</time>
      </trkpt>
      <trkpt lat="49.49733" lon="-1.59029">
        <ele>79.8</ele>
        <time>2014-11-03T15:40:17Z</time>
      </trkpt>
      <trkpt lat="49.49741" lon="-1.59038">
        <ele>79</ele>
        <time>2014-11-03T15:40:22Z</time>
      </trkpt>
      <trkpt lat="49.49748" lon="-1.59049">
        <ele>78.3</ele>
        <time>2014-11-03T15:40:29Z</time>
      </trkpt>
      <trkpt lat="49.49756" lon="-1.59058">
        <ele>77.8</ele>
        <time>2014-11-03T15:40:36Z</time>
      </trkpt>
      <trkpt lat="49.49764" lon="-1.59066">
        <ele>77.1</ele>
        <time>2014-11-03T15:40:43Z</time>
      </trkpt>
      <trkpt lat="49.49771" lon="-1.59077">
        <ele>76.2</ele>
        <time>2014-11-03T15:40:52Z</time>
      </trkpt>
      <trkpt lat="49.49778" lon="-1.59086">
        <ele>75.8</ele>
        <time>2014-11-03T15:41:00Z</time>
      </trkpt>
      <trkpt lat="49.49784" lon="-1.59097">
        <ele>74.8</ele>
        <time>2014-11-03T15:41:08Z</time>
      </trkpt>
      <trkpt lat="49.49792" lon="-1.59104">
        <ele>74.5</ele>
        <time>2014-11-03T15:41:16Z</time>
      </trkpt>
      <trkpt lat="49.498" lon="-1.59111">
        <ele>73.7</ele>
        <time>2014-11-03T15:41:24Z</time>
      </trkpt>
      <trkpt lat="49.49807" lon="-1.59121">
        <ele>73.5</ele>
        <time>2014-11-03T15:41:31Z</time>
      </trkpt>
      <trkpt lat="49.49814" lon="-1.59128">
        <ele>73</ele>
        <time>2014-11-03T15:41:38Z</time>
      </trkpt>
      <trkpt lat="49.49822" lon="-1.59139">
        <ele>72.3</ele>
        <time>2014-11-03T15:41:44Z</time>
      </trkpt>
      <trkpt lat="49.49829" lon="-1.59149">
        <ele>71.8</ele>
        <time>2014-11-03T15:41:51Z</time>
      </trkpt>
      <trkpt lat="49.49837" lon="-1.59158">
        <ele>70.9</ele>
        <time>2014-11-03T15:41:59Z</time>
      </trkpt>
      <trkpt lat="49.49846" lon="-1.59163">
        <ele>70.5</ele>
        <time>2014-11-03T15:42:05Z</time>
      </trkpt>
      <trkpt lat="49.49854" lon="-1.59172">
        <ele>70</ele>
        <time>2014-11-03T15:42:13Z</time>
      </trkpt>
      <trkpt lat="49.49862" lon="-1.59181">
        <ele>70</ele>
        <time>2014-11-03T15:42:21Z</time>
      </trkpt>
      <trkpt lat="49.49868" lon="-1.59192">
        <ele>69.3</ele>
        <time>2014-11-03T15:42:27Z</time>
      </trkpt>
      <trkpt lat="49.49875" lon="-1.59203">
        <ele>69.7</ele>
        <time>2014-11-03T15:42:34Z</time>
      </trkpt>
      <trkpt lat="49.49881" lon="-1.59213">
        <ele>69.5</ele>
        <time>2014-11-03T15:42:42Z</time>
      </trkpt>
      <trkpt lat="49.49887" lon="-1.59225">
        <ele>68.8</ele>
        <time>2014-11-03T15:42:50Z</time>
      </trkpt>
      <trkpt lat="49.49893" lon="-1.59236">
        <ele>67.9</ele>
        <time>2014-11-03T15:42:58Z</time>
      </trkpt>
      <trkpt lat="49.49899" lon="-1.59248">
        <ele>67.4</ele>
        <time>2014-11-03T15:43:06Z</time>
      </trkpt>
      <trkpt lat="49.49905" lon="-1.5926">
        <ele>66.9</ele>
        <time>2014-11-03T15:43:14Z</time>
      </trkpt>
      <trkpt lat="49.4991" lon="-1.59272">
        <ele>66.7</ele>
        <time>2014-11-03T15:43:23Z</time>
      </trkpt>
      <trkpt lat="49.49915" lon="-1.59285">
        <ele>66.6</ele>
        <time>2014-11-03T15:43:31Z</time>
      </trkpt>
      <trkpt lat="49.49921" lon="-1.59298">
        <ele>66.4</ele>
        <time>2014-11-03T15:43:39Z</time>
      </trkpt>
      <trkpt lat="49.49926" lon="-1.5931">
        <ele>66</ele>
        <time>2014-11-03T15:43:47Z</time>
      </trkpt>
      <trkpt lat="49.49932" lon="-1.59321">
        <ele>65</ele>
        <time>2014-11-03T15:43:55Z</time>
      </trkpt>
      <trkpt lat="49.49937" lon="-1.59333">
        <ele>64.5</ele>
        <time>2014-11-03T15:44:02Z</time>
      </trkpt>
      <trkpt lat="49.49942" lon="-1.59346">
        <ele>64</ele>
        <time>2014-11-03T15:44:09Z</time>
      </trkpt>
      <trkpt lat="49.49947" lon="-1.59359">
        <ele>63.2</ele>
        <time>2014-11-03T15:44:17Z</time>
      </trkpt>
      <trkpt lat="49.49952" lon="-1.59372">
        <ele>62.6</ele>
        <time>2014-11-03T15:44:27Z</time>
      </trkpt>
      <trkpt lat="49.49956" lon="-1.59386">
        <ele>62.4</ele>
        <time>2014-11-03T15:44:37Z</time>
      </trkpt>
      <trkpt lat="49.49959" lon="-1.594">
        <ele>62.2</ele>
        <time>2014-11-03T15:44:45Z</time>
      </trkpt>
      <trkpt lat="49.49964" lon="-1.59412">
        <ele>62</ele>
        <time>2014-11-03T15:44:52Z</time>
      </trkpt>
      <trkpt lat="49.49966" lon="-1.59426">
        <ele>61.8</ele>
        <time>2014-11-03T15:45:01Z</time>
      </trkpt>
      <trkpt lat="49.49967" lon="-1.5944">
        <ele>61.9</ele>
        <time>2014-11-03T15:45:07Z</time>
      </trkpt>
      <trkpt lat="49.49967" lon="-1.59455">
        <ele>62</ele>
        <time>2014-11-03T15:45:15Z</time>
      </trkpt>
      <trkpt lat="49.49968" lon="-1.5947">
        <ele>61.6</ele>
        <time>2014-11-03T15:45:21Z</time>
      </trkpt>
      <trkpt lat="49.49971" lon="-1.59483">
        <ele>62.5</ele>
        <time>2014-11-03T15:45:27Z</time>
      </trkpt>
      <trkpt lat="49.49976" lon="-1.59495">
        <ele>62.3</ele>
        <time>2014-11-03T15:45:34Z</time>
      </trkpt>
      <trkpt lat="49.49981" lon="-1.59509">
        <ele>63.3</ele>
        <time>2014-11-03T15:45:42Z</time>
      </trkpt>
      <trkpt lat="49.49987" lon="-1.5952">
        <ele>63.8</ele>
        <time>2014-11-03T15:45:48Z</time>
      </trkpt>
      <trkpt lat="49.49993" lon="-1.59532">
        <ele>64.1</ele>
        <time>2014-11-03T15:45:55Z</time>
      </trkpt>
      <trkpt lat="49.49999" lon="-1.59544">
        <ele>65</ele>
        <time>2014-11-03T15:46:04Z</time>
      </trkpt>
      <trkpt lat="49.50004" lon="-1.59556">
        <ele>65.2</ele>
        <time>2014-11-03T15:46:10Z</time>
      </trkpt>
      <trkpt lat="49.50009" lon="-1.59568">
        <ele>65.9</ele>
        <time>2014-11-03T15:46:19Z</time>
      </trkpt>
      <trkpt lat="49.50014" lon="-1.5958">
        <ele>66.6</ele>
        <time>2014-11-03T15:46:27Z</time>
      </trkpt>
      <trkpt lat="49.5002" lon="-1.59592">
        <ele>66.7</ele>
        <time>2014-11-03T15:46:36Z</time>
      </trkpt>
      <trkpt lat="49.50027" lon="-1.59604">
        <ele>67.1</ele>
        <time>2014-11-03T15:46:43Z</time>
      </trkpt>
      <trkpt lat="49.50032" lon="-1.59616">
        <ele>67.7</ele>
        <time>2014-11-03T15:46:50Z</time>
      </trkpt>
      <trkpt lat="49.50036" lon="-1.59629">
        <ele>68.1</ele>
        <time>2014-11-03T15:46:57Z</time>
      </trkpt>
      <trkpt lat="49.5004" lon="-1.59644">
        <ele>68.7</ele>
        <time>2014-11-03T15:47:06Z</time>
      </trkpt>
      <trkpt lat="49.50046" lon="-1.59661">
        <ele>69.5</ele>
        <time>2014-11-03T15:47:35Z</time>
      </trkpt>
      <trkpt lat="49.50047" lon="-1.59677">
        <ele>69.9</ele>
        <time>2014-11-03T15:48:35Z</time>
      </trkpt>
      <trkpt lat="49.50051" lon="-1.5969">
        <ele>72.4</ele>
        <time>2014-11-03T15:49:24Z</time>
      </trkpt>
      <trkpt lat="49.5006" lon="-1.59687">
        <ele>73</ele>
        <time>2014-11-03T15:49:35Z</time>
      </trkpt>
      <trkpt lat="49.50068" lon="-1.59678">
        <ele>72.6</ele>
        <time>2014-11-03T15:49:49Z</time>
      </trkpt>
      <trkpt lat="49.50076" lon="-1.59667">
        <ele>73.8</ele>
        <time>2014-11-03T15:50:05Z</time>
      </trkpt>
      <trkpt lat="49.50083" lon="-1.59657">
        <ele>73.8</ele>
        <time>2014-11-03T15:50:13Z</time>
      </trkpt>
      <trkpt lat="49.5009" lon="-1.59647">
        <ele>73.9</ele>
        <time>2014-11-03T15:50:19Z</time>
      </trkpt>
      <trkpt lat="49.50097" lon="-1.59639">
        <ele>73.8</ele>
        <time>2014-11-03T15:50:26Z</time>
      </trkpt>
      <trkpt lat="49.50105" lon="-1.5963">
        <ele>74</ele>
        <time>2014-11-03T15:50:34Z</time>
      </trkpt>
      <trkpt lat="49.50112" lon="-1.59619">
        <ele>74.1</ele>
        <time>2014-11-03T15:50:40Z</time>
      </trkpt>
      <trkpt lat="49.50118" lon="-1.59609">
        <ele>74.4</ele>
        <time>2014-11-03T15:50:46Z</time>
      </trkpt>
      <trkpt lat="49.50125" lon="-1.59599">
        <ele>74.6</ele>
        <time>2014-11-03T15:50:53Z</time>
      </trkpt>
      <trkpt lat="49.50133" lon="-1.59589">
        <ele>74.6</ele>
        <time>2014-11-03T15:51:02Z</time>
      </trkpt>
      <trkpt lat="49.50139" lon="-1.59578">
        <ele>75</ele>
        <time>2014-11-03T15:51:10Z</time>
      </trkpt>
      <trkpt lat="49.50146" lon="-1.59568">
        <ele>74.9</ele>
        <time>2014-11-03T15:51:21Z</time>
      </trkpt>
      <trkpt lat="49.50152" lon="-1.59558">
        <ele>75.2</ele>
        <time>2014-11-03T15:51:31Z</time>
      </trkpt>
      <trkpt lat="49.50159" lon="-1.59549">
        <ele>75.2</ele>
        <time>2014-11-03T15:51:40Z</time>
      </trkpt>
      <trkpt lat="49.50166" lon="-1.59541">
        <ele>75.2</ele>
        <time>2014-11-03T15:51:47Z</time>
      </trkpt>
      <trkpt lat="49.50175" lon="-1.59533">
        <ele>75.4</ele>
        <time>2014-11-03T15:51:56Z</time>
      </trkpt>
      <trkpt lat="49.50181" lon="-1.59523">
        <ele>75.7</ele>
        <time>2014-11-03T15:52:04Z</time>
      </trkpt>
      <trkpt lat="49.50187" lon="-1.5951">
        <ele>76</ele>
        <time>2014-11-03T15:52:12Z</time>
      </trkpt>
      <trkpt lat="49.50195" lon="-1.595">
        <ele>76</ele>
        <time>2014-11-03T15:52:19Z</time>
      </trkpt>
      <trkpt lat="49.50202" lon="-1.59489">
        <ele>76.2</ele>
        <time>2014-11-03T15:52:28Z</time>
      </trkpt>
      <trkpt lat="49.50209" lon="-1.5948">
        <ele>76</ele>
        <time>2014-11-03T15:52:37Z</time>
      </trkpt>
      <trkpt lat="49.50216" lon="-1.59468">
        <ele>76.3</ele>
        <time>2014-11-03T15:52:46Z</time>
      </trkpt>
      <trkpt lat="49.50225" lon="-1.59462">
        <ele>76.7</ele>
        <time>2014-11-03T15:52:55Z</time>
      </trkpt>
      <trkpt lat="49.50231" lon="-1.59449">
        <ele>76.9</ele>
        <time>2014-11-03T15:53:03Z</time>
      </trkpt>
      <trkpt lat="49.50239" lon="-1.59439">
        <ele>77.1</ele>
        <time>2014-11-03T15:53:11Z</time>
      </trkpt>
      <trkpt lat="49.50245" lon="-1.5943">
        <ele>77.6</ele>
        <time>2014-11-03T15:53:18Z</time>
      </trkpt>
      <trkpt lat="49.50252" lon="-1.59419">
        <ele>77.6</ele>
        <time>2014-11-03T15:53:26Z</time>
      </trkpt>
      <trkpt lat="49.50259" lon="-1.59409">
        <ele>77.3</ele>
        <time>2014-11-03T15:53:34Z</time>
      </trkpt>
      <trkpt lat="49.50267" lon="-1.59398">
        <ele>77.8</ele>
        <time>2014-11-03T15:53:43Z</time>
      </trkpt>
      <trkpt lat="49.50273" lon="-1.59388">
        <ele>78.1</ele>
        <time>2014-11-03T15:53:50Z</time>
      </trkpt>
      <trkpt lat="49.50281" lon="-1.59381">
        <ele>78.5</ele>
        <time>2014-11-03T15:54:23Z</time>
      </trkpt>
      <trkpt lat="49.50289" lon="-1.59372">
        <ele>78.5</ele>
        <time>2014-11-03T15:54:30Z</time>
      </trkpt>
      <trkpt lat="49.50297" lon="-1.59366">
        <ele>78.5</ele>
        <time>2014-11-03T15:54:36Z</time>
      </trkpt>
      <trkpt lat="49.50304" lon="-1.59356">
        <ele>78.8</ele>
        <time>2014-11-03T15:54:43Z</time>
      </trkpt>
      <trkpt lat="49.50311" lon="-1.59347">
        <ele>79</ele>
        <time>2014-11-03T15:54:48Z</time>
      </trkpt>
      <trkpt lat="49.50316" lon="-1.59335">
        <ele>79.2</ele>
        <time>2014-11-03T15:54:53Z</time>
      </trkpt>
      <trkpt lat="49.50324" lon="-1.59325">
        <ele>79.4</ele>
        <time>2014-11-03T15:54:59Z</time>
      </trkpt>
      <trkpt lat="49.5033" lon="-1.59314">
        <ele>79</ele>
        <time>2014-11-03T15:55:05Z</time>
      </trkpt>
      <trkpt lat="49.50338" lon="-1.59305">
        <ele>79.3</ele>
        <time>2014-11-03T15:55:11Z</time>
      </trkpt>
      <trkpt lat="49.50346" lon="-1.59296">
        <ele>79.4</ele>
        <time>2014-11-03T15:55:17Z</time>
      </trkpt>
      <trkpt lat="49.50352" lon="-1.59285">
        <ele>79.4</ele>
        <time>2014-11-03T15:55:23Z</time>
      </trkpt>
      <trkpt lat="49.50358" lon="-1.59274">
        <ele>79.4</ele>
        <time>2014-11-03T15:55:28Z</time>
      </trkpt>
      <trkpt lat="49.50366" lon="-1.59262">
        <ele>79.6</ele>
        <time>2014-11-03T15:55:35Z</time>
      </trkpt>
      <trkpt lat="49.50374" lon="-1.59252">
        <ele>79.9</ele>
        <time>2014-11-03T15:55:41Z</time>
      </trkpt>
      <trkpt lat="49.50381" lon="-1.59243">
        <ele>80.1</ele>
        <time>2014-11-03T15:55:47Z</time>
      </trkpt>
      <trkpt lat="49.50387" lon="-1.59232">
        <ele>80.1</ele>
        <time>2014-11-03T15:55:52Z</time>
      </trkpt>
      <trkpt lat="49.50394" lon="-1.59221">
        <ele>80.3</ele>
        <time>2014-11-03T15:55:57Z</time>
      </trkpt>
      <trkpt lat="49.50402" lon="-1.59212">
        <ele>80.5</ele>
        <time>2014-11-03T15:56:04Z</time>
      </trkpt>
      <trkpt lat="49.50406" lon="-1.59199">
        <ele>80.4</ele>
        <time>2014-11-03T15:56:15Z</time>
      </trkpt>
      <trkpt lat="49.50415" lon="-1.59192">
        <ele>80.8</ele>
        <time>2014-11-03T15:56:27Z</time>
      </trkpt>
      <trkpt lat="49.50423" lon="-1.59198">
        <ele>80.8</ele>
        <time>2014-11-03T15:56:41Z</time>
      </trkpt>
      <trkpt lat="49.50428" lon="-1.59212">
        <ele>81.2</ele>
        <time>2014-11-03T15:56:49Z</time>
      </trkpt>
      <trkpt lat="49.50434" lon="-1.59223">
        <ele>81.2</ele>
        <time>2014-11-03T15:56:57Z</time>
      </trkpt>
      <trkpt lat="49.50438" lon="-1.59237">
        <ele>82</ele>
        <time>2014-11-03T15:57:04Z</time>
      </trkpt>
      <trkpt lat="49.50443" lon="-1.59249">
        <ele>79.2</ele>
        <time>2014-11-03T15:57:11Z</time>
      </trkpt>
      <trkpt lat="49.50449" lon="-1.5926">
        <ele>84.3</ele>
        <time>2014-11-03T15:57:19Z</time>
      </trkpt>
      <trkpt lat="49.50454" lon="-1.59273">
        <ele>83.8</ele>
        <time>2014-11-03T15:57:27Z</time>
      </trkpt>
      <trkpt lat="49.50459" lon="-1.59285">
        <ele>82.5</ele>
        <time>2014-11-03T15:57:34Z</time>
      </trkpt>
      <trkpt lat="49.50465" lon="-1.59296">
        <ele>82.4</ele>
        <time>2014-11-03T15:57:41Z</time>
      </trkpt>
      <trkpt lat="49.50474" lon="-1.593">
        <ele>82.3</ele>
        <time>2014-11-03T15:57:49Z</time>
      </trkpt>
      <trkpt lat="49.50481" lon="-1.5929">
        <ele>83</ele>
        <time>2014-11-03T15:57:56Z</time>
      </trkpt>
      <trkpt lat="49.50487" lon="-1.59279">
        <ele>83.3</ele>
        <time>2014-11-03T15:58:03Z</time>
      </trkpt>
      <trkpt lat="49.50493" lon="-1.59268">
        <ele>84</ele>
        <time>2014-11-03T15:58:10Z</time>
      </trkpt>
      <trkpt lat="49.505" lon="-1.59259">
        <ele>83.5</ele>
        <time>2014-11-03T15:58:17Z</time>
      </trkpt>
      <trkpt lat="49.50507" lon="-1.59249">
        <ele>83.6</ele>
        <time>2014-11-03T15:58:24Z</time>
      </trkpt>
      <trkpt lat="49.50514" lon="-1.59238">
        <ele>82.4</ele>
        <time>2014-11-03T15:58:31Z</time>
      </trkpt>
      <trkpt lat="49.50521" lon="-1.59228">
        <ele>84</ele>
        <time>2014-11-03T15:58:38Z</time>
      </trkpt>
      <trkpt lat="49.50528" lon="-1.59217">
        <ele>84.1</ele>
        <time>2014-11-03T15:58:46Z</time>
      </trkpt>
      <trkpt lat="49.50535" lon="-1.59207">
        <ele>84.4</ele>
        <time>2014-11-03T15:58:53Z</time>
      </trkpt>
      <trkpt lat="49.50543" lon="-1.59197">
        <ele>84.2</ele>
        <time>2014-11-03T15:59:00Z</time>
      </trkpt>
      <trkpt lat="49.5055" lon="-1.59186">
        <ele>83.9</ele>
        <time>2014-11-03T15:59:07Z</time>
      </trkpt>
      <trkpt lat="49.50558" lon="-1.59179">
        <ele>84.3</ele>
        <time>2014-11-03T15:59:15Z</time>
      </trkpt>
      <trkpt lat="49.50566" lon="-1.59169">
        <ele>84.1</ele>
        <time>2014-11-03T15:59:23Z</time>
      </trkpt>
      <trkpt lat="49.50571" lon="-1.59155">
        <ele>84.4</ele>
        <time>2014-11-03T15:59:31Z</time>
      </trkpt>
      <trkpt lat="49.50578" lon="-1.59146">
        <ele>84.5</ele>
        <time>2014-11-03T15:59:38Z</time>
      </trkpt>
      <trkpt lat="49.50584" lon="-1.59135">
        <ele>84.6</ele>
        <time>2014-11-03T15:59:45Z</time>
      </trkpt>
      <trkpt lat="49.50591" lon="-1.59124">
        <ele>84.7</ele>
        <time>2014-11-03T15:59:52Z</time>
      </trkpt>
      <trkpt lat="49.50597" lon="-1.59112">
        <ele>84.8</ele>
        <time>2014-11-03T15:59:59Z</time>
      </trkpt>
      <trkpt lat="49.50604" lon="-1.59103">
        <ele>84.9</ele>
        <time>2014-11-03T16:00:06Z</time>
      </trkpt>
      <trkpt lat="49.50611" lon="-1.59094">
        <ele>85</ele>
        <time>2014-11-03T16:00:15Z</time>
      </trkpt>
      <trkpt lat="49.50619" lon="-1.59085">
        <ele>85.2</ele>
        <time>2014-11-03T16:00:24Z</time>
      </trkpt>
      <trkpt lat="49.50625" lon="-1.59074">
        <ele>85</ele>
        <time>2014-11-03T16:00:32Z</time>
      </trkpt>
      <trkpt lat="49.50632" lon="-1.59064">
        <ele>85</ele>
        <time>2014-11-03T16:00:38Z</time>
      </trkpt>
      <trkpt lat="49.50639" lon="-1.59053">
        <ele>84.7</ele>
        <time>2014-11-03T16:00:46Z</time>
      </trkpt>
      <trkpt lat="49.50646" lon="-1.59044">
        <ele>85</ele>
        <time>2014-11-03T16:00:54Z</time>
      </trkpt>
      <trkpt lat="49.50653" lon="-1.59035">
        <ele>84.8</ele>
        <time>2014-11-03T16:01:01Z</time>
      </trkpt>
      <trkpt lat="49.50661" lon="-1.59027">
        <ele>85.1</ele>
        <time>2014-11-03T16:01:08Z</time>
      </trkpt>
      <trkpt lat="49.50668" lon="-1.59019">
        <ele>85</ele>
        <time>2014-11-03T16:01:17Z</time>
      </trkpt>
      <trkpt lat="49.50676" lon="-1.59012">
        <ele>84.8</ele>
        <time>2014-11-03T16:01:24Z</time>
      </trkpt>
      <trkpt lat="49.50684" lon="-1.59005">
        <ele>85.6</ele>
        <time>2014-11-03T16:01:31Z</time>
      </trkpt>
      <trkpt lat="49.50694" lon="-1.58998">
        <ele>85.9</ele>
        <time>2014-11-03T16:01:38Z</time>
      </trkpt>
      <trkpt lat="49.50703" lon="-1.58991">
        <ele>86</ele>
        <time>2014-11-03T16:01:44Z</time>
      </trkpt>
      <trkpt lat="49.50711" lon="-1.58984">
        <ele>86.1</ele>
        <time>2014-11-03T16:01:51Z</time>
      </trkpt>
      <trkpt lat="49.5072" lon="-1.58979">
        <ele>86.4</ele>
        <time>2014-11-03T16:01:58Z</time>
      </trkpt>
      <trkpt lat="49.50729" lon="-1.58976">
        <ele>86.7</ele>
        <time>2014-11-03T16:02:05Z</time>
      </trkpt>
      <trkpt lat="49.50739" lon="-1.58978">
        <ele>86.5</ele>
        <time>2014-11-03T16:02:12Z</time>
      </trkpt>
      <trkpt lat="49.50749" lon="-1.58979">
        <ele>86.8</ele>
        <time>2014-11-03T16:02:21Z</time>
      </trkpt>
      <trkpt lat="49.50759" lon="-1.58978">
        <ele>87</ele>
        <time>2014-11-03T16:02:30Z</time>
      </trkpt>
      <trkpt lat="49.50768" lon="-1.5898">
        <ele>87.1</ele>
        <time>2014-11-03T16:02:37Z</time>
      </trkpt>
      <trkpt lat="49.50778" lon="-1.58978">
        <ele>87</ele>
        <time>2014-11-03T16:02:44Z</time>
      </trkpt>
      <trkpt lat="49.50788" lon="-1.5898">
        <ele>86.9</ele>
        <time>2014-11-03T16:02:52Z</time>
      </trkpt>
      <trkpt lat="49.50798" lon="-1.58981">
        <ele>87.1</ele>
        <time>2014-11-03T16:02:59Z</time>
      </trkpt>
      <trkpt lat="49.50808" lon="-1.58982">
        <ele>87.4</ele>
        <time>2014-11-03T16:03:07Z</time>
      </trkpt>
      <trkpt lat="49.50818" lon="-1.58985">
        <ele>87.7</ele>
        <time>2014-11-03T16:03:14Z</time>
      </trkpt>
      <trkpt lat="49.50827" lon="-1.58985">
        <ele>87.8</ele>
        <time>2014-11-03T16:03:20Z</time>
      </trkpt>
      <trkpt lat="49.50836" lon="-1.58985">
        <ele>87.5</ele>
        <time>2014-11-03T16:03:27Z</time>
      </trkpt>
      <trkpt lat="49.50845" lon="-1.58986">
        <ele>87.5</ele>
        <time>2014-11-03T16:03:35Z</time>
      </trkpt>
      <trkpt lat="49.50855" lon="-1.58988">
        <ele>87.2</ele>
        <time>2014-11-03T16:03:43Z</time>
      </trkpt>
      <trkpt lat="49.50865" lon="-1.5899">
        <ele>87.4</ele>
        <time>2014-11-03T16:03:49Z</time>
      </trkpt>
      <trkpt lat="49.50874" lon="-1.58993">
        <ele>87</ele>
        <time>2014-11-03T16:03:57Z</time>
      </trkpt>
      <trkpt lat="49.50884" lon="-1.58994">
        <ele>87.1</ele>
        <time>2014-11-03T16:04:05Z</time>
      </trkpt>
      <trkpt lat="49.50894" lon="-1.58992">
        <ele>86.9</ele>
        <time>2014-11-03T16:04:15Z</time>
      </trkpt>
      <trkpt lat="49.50904" lon="-1.58995">
        <ele>86.8</ele>
        <time>2014-11-03T16:04:23Z</time>
      </trkpt>
      <trkpt lat="49.50913" lon="-1.58996">
        <ele>86.8</ele>
        <time>2014-11-03T16:04:31Z</time>
      </trkpt>
      <trkpt lat="49.50923" lon="-1.58997">
        <ele>86.8</ele>
        <time>2014-11-03T16:04:40Z</time>
      </trkpt>
      <trkpt lat="49.50932" lon="-1.58997">
        <ele>87</ele>
        <time>2014-11-03T16:04:47Z</time>
      </trkpt>
      <trkpt lat="49.50941" lon="-1.58999">
        <ele>86.9</ele>
        <time>2014-11-03T16:04:55Z</time>
      </trkpt>
      <trkpt lat="49.5095" lon="-1.59001">
        <ele>86.8</ele>
        <time>2014-11-03T16:05:02Z</time>
      </trkpt>
      <trkpt lat="49.5096" lon="-1.59">
        <ele>86.6</ele>
        <time>2014-11-03T16:05:11Z</time>
      </trkpt>
      <trkpt lat="49.5097" lon="-1.59001">
        <ele>86.7</ele>
        <time>2014-11-03T16:05:17Z</time>
      </trkpt>
      <trkpt lat="49.5098" lon="-1.59001">
        <ele>86.9</ele>
        <time>2014-11-03T16:05:27Z</time>
      </trkpt>
      <trkpt lat="49.50989" lon="-1.59001">
        <ele>86.5</ele>
        <time>2014-11-03T16:05:38Z</time>
      </trkpt>
      <trkpt lat="49.50999" lon="-1.59002">
        <ele>86</ele>
        <time>2014-11-03T16:05:47Z</time>
      </trkpt>
      <trkpt lat="49.51009" lon="-1.59003">
        <ele>85.7</ele>
        <time>2014-11-03T16:05:55Z</time>
      </trkpt>
      <trkpt lat="49.51019" lon="-1.59004">
        <ele>85.5</ele>
        <time>2014-11-03T16:06:00Z</time>
      </trkpt>
      <trkpt lat="49.51028" lon="-1.59005">
        <ele>85.8</ele>
        <time>2014-11-03T16:06:05Z</time>
      </trkpt>
      <trkpt lat="49.51037" lon="-1.59006">
        <ele>85.4</ele>
        <time>2014-11-03T16:06:13Z</time>
      </trkpt>
      <trkpt lat="49.51047" lon="-1.59009">
        <ele>84.7</ele>
        <time>2014-11-03T16:06:22Z</time>
      </trkpt>
      <trkpt lat="49.51057" lon="-1.59012">
        <ele>84.5</ele>
        <time>2014-11-03T16:06:28Z</time>
      </trkpt>
      <trkpt lat="49.51066" lon="-1.59015">
        <ele>83.8</ele>
        <time>2014-11-03T16:06:37Z</time>
      </trkpt>
      <trkpt lat="49.51076" lon="-1.59019">
        <ele>83.1</ele>
        <time>2014-11-03T16:06:47Z</time>
      </trkpt>
      <trkpt lat="49.51087" lon="-1.59025">
        <ele>82.3</ele>
        <time>2014-11-03T16:06:55Z</time>
      </trkpt>
      <trkpt lat="49.51095" lon="-1.5903">
        <ele>81.6</ele>
        <time>2014-11-03T16:07:02Z</time>
      </trkpt>
      <trkpt lat="49.51104" lon="-1.59034">
        <ele>80.9</ele>
        <time>2014-11-03T16:07:12Z</time>
      </trkpt>
      <trkpt lat="49.51114" lon="-1.59039">
        <ele>80.3</ele>
        <time>2014-11-03T16:07:20Z</time>
      </trkpt>
      <trkpt lat="49.51122" lon="-1.59046">
        <ele>79.5</ele>
        <time>2014-11-03T16:07:28Z</time>
      </trkpt>
      <trkpt lat="49.5113" lon="-1.59051">
        <ele>78.5</ele>
        <time>2014-11-03T16:07:35Z</time>
      </trkpt>
      <trkpt lat="49.5114" lon="-1.59055">
        <ele>77.3</ele>
        <time>2014-11-03T16:07:44Z</time>
      </trkpt>
      <trkpt lat="49.51149" lon="-1.59058">
        <ele>75.9</ele>
        <time>2014-11-03T16:07:52Z</time>
      </trkpt>
      <trkpt lat="49.51158" lon="-1.59061">
        <ele>75</ele>
        <time>2014-11-03T16:08:00Z</time>
      </trkpt>
      <trkpt lat="49.51168" lon="-1.59066">
        <ele>74.1</ele>
        <time>2014-11-03T16:08:10Z</time>
      </trkpt>
      <trkpt lat="49.51177" lon="-1.59072">
        <ele>73.4</ele>
        <time>2014-11-03T16:08:18Z</time>
      </trkpt>
      <trkpt lat="49.51186" lon="-1.59076">
        <ele>72.9</ele>
        <time>2014-11-03T16:08:25Z</time>
      </trkpt>
      <trkpt lat="49.51195" lon="-1.59082">
        <ele>72.5</ele>
        <time>2014-11-03T16:08:31Z</time>
      </trkpt>
      <trkpt lat="49.51204" lon="-1.59087">
        <ele>72.5</ele>
        <time>2014-11-03T16:08:37Z</time>
      </trkpt>
      <trkpt lat="49.51212" lon="-1.59097">
        <ele>71.8</ele>
        <time>2014-11-03T16:08:46Z</time>
      </trkpt>
      <trkpt lat="49.5122" lon="-1.59105">
        <ele>71.3</ele>
        <time>2014-11-03T16:08:52Z</time>
      </trkpt>
      <trkpt lat="49.51228" lon="-1.59113">
        <ele>71.4</ele>
        <time>2014-11-03T16:08:58Z</time>
      </trkpt>
      <trkpt lat="49.51238" lon="-1.59122">
        <ele>70.5</ele>
        <time>2014-11-03T16:09:06Z</time>
      </trkpt>
      <trkpt lat="49.51245" lon="-1.59132">
        <ele>70.5</ele>
        <time>2014-11-03T16:09:13Z</time>
      </trkpt>
      <trkpt lat="49.51252" lon="-1.59142">
        <ele>70.5</ele>
        <time>2014-11-03T16:09:21Z</time>
      </trkpt>
      <trkpt lat="49.51259" lon="-1.59151">
        <ele>69.9</ele>
        <time>2014-11-03T16:09:29Z</time>
      </trkpt>
      <trkpt lat="49.51266" lon="-1.59161">
        <ele>69.7</ele>
        <time>2014-11-03T16:09:36Z</time>
      </trkpt>
      <trkpt lat="49.51274" lon="-1.59168">
        <ele>69.7</ele>
        <time>2014-11-03T16:09:42Z</time>
      </trkpt>
      <trkpt lat="49.51284" lon="-1.59174">
        <ele>68.9</ele>
        <time>2014-11-03T16:09:48Z</time>
      </trkpt>
      <trkpt lat="49.51294" lon="-1.59175">
        <ele>68.2</ele>
        <time>2014-11-03T16:09:57Z</time>
      </trkpt>
      <trkpt lat="49.51299" lon="-1.59186">
        <ele>64.7</ele>
        <time>2014-11-03T16:10:15Z</time>
      </trkpt>
      <trkpt lat="49.51309" lon="-1.59188">
        <ele>62.5</ele>
        <time>2014-11-03T16:10:25Z</time>
      </trkpt>
      <trkpt lat="49.51318" lon="-1.59195">
        <ele>62.4</ele>
        <time>2014-11-03T16:10:38Z</time>
      </trkpt>
      <trkpt lat="49.51328" lon="-1.59197">
        <ele>63.5</ele>
        <time>2014-11-03T16:10:47Z</time>
      </trkpt>
      <trkpt lat="49.51337" lon="-1.59196">
        <ele>64.6</ele>
        <time>2014-11-03T16:10:55Z</time>
      </trkpt>
      <trkpt lat="49.51346" lon="-1.59192">
        <ele>65.5</ele>
        <time>2014-11-03T16:11:05Z</time>
      </trkpt>
      <trkpt lat="49.51354" lon="-1.59186">
        <ele>66.2</ele>
        <time>2014-11-03T16:11:13Z</time>
      </trkpt>
      <trkpt lat="49.51364" lon="-1.59183">
        <ele>66.6</ele>
        <time>2014-11-03T16:11:16Z</time>
      </trkpt>
      <trkpt lat="49.51374" lon="-1.59179">
        <ele>67.3</ele>
        <time>2014-11-03T16:11:22Z</time>
      </trkpt>
      <trkpt lat="49.51382" lon="-1.59175">
        <ele>68.2</ele>
        <time>2014-11-03T16:11:30Z</time>
      </trkpt>
      <trkpt lat="49.51391" lon="-1.59168">
        <ele>68.2</ele>
        <time>2014-11-03T16:11:38Z</time>
      </trkpt>
      <trkpt lat="49.514" lon="-1.59162">
        <ele>68.6</ele>
        <time>2014-11-03T16:11:47Z</time>
      </trkpt>
      <trkpt lat="49.51411" lon="-1.59157">
        <ele>68.5</ele>
        <time>2014-11-03T16:11:54Z</time>
      </trkpt>
      <trkpt lat="49.5142" lon="-1.59149">
        <ele>68.4</ele>
        <time>2014-11-03T16:12:01Z</time>
      </trkpt>
      <trkpt lat="49.51427" lon="-1.5914">
        <ele>68.8</ele>
        <time>2014-11-03T16:12:10Z</time>
      </trkpt>
      <trkpt lat="49.51438" lon="-1.59135">
        <ele>68.8</ele>
        <time>2014-11-03T16:12:19Z</time>
      </trkpt>
      <trkpt lat="49.51445" lon="-1.59127">
        <ele>69.1</ele>
        <time>2014-11-03T16:12:25Z</time>
      </trkpt>
      <trkpt lat="49.51453" lon="-1.5912">
        <ele>69.2</ele>
        <time>2014-11-03T16:12:31Z</time>
      </trkpt>
      <trkpt lat="49.51457" lon="-1.59107">
        <ele>68.8</ele>
        <time>2014-11-03T16:12:42Z</time>
      </trkpt>
      <trkpt lat="49.51461" lon="-1.59093">
        <ele>68.8</ele>
        <time>2014-11-03T16:12:51Z</time>
      </trkpt>
      <trkpt lat="49.51465" lon="-1.59079">
        <ele>68.7</ele>
        <time>2014-11-03T16:12:58Z</time>
      </trkpt>
      <trkpt lat="49.51468" lon="-1.59065">
        <ele>68.5</ele>
        <time>2014-11-03T16:13:06Z</time>
      </trkpt>
      <trkpt lat="49.51473" lon="-1.59053">
        <ele>68</ele>
        <time>2014-11-03T16:13:13Z</time>
      </trkpt>
      <trkpt lat="49.51479" lon="-1.59041">
        <ele>67.8</ele>
        <time>2014-11-03T16:13:21Z</time>
      </trkpt>
      <trkpt lat="49.51485" lon="-1.59028">
        <ele>67.9</ele>
        <time>2014-11-03T16:13:30Z</time>
      </trkpt>
      <trkpt lat="49.51487" lon="-1.59013">
        <ele>67.5</ele>
        <time>2014-11-03T16:13:37Z</time>
      </trkpt>
      <trkpt lat="49.51491" lon="-1.59">
        <ele>67.3</ele>
        <time>2014-11-03T16:13:45Z</time>
      </trkpt>
      <trkpt lat="49.51494" lon="-1.58986">
        <ele>67.6</ele>
        <time>2014-11-03T16:13:52Z</time>
      </trkpt>
      <trkpt lat="49.51497" lon="-1.5897">
        <ele>67.2</ele>
        <time>2014-11-03T16:14:00Z</time>
      </trkpt>
      <trkpt lat="49.51501" lon="-1.58956">
        <ele>66.9</ele>
        <time>2014-11-03T16:14:08Z</time>
      </trkpt>
      <trkpt lat="49.51504" lon="-1.58944">
        <ele>66.9</ele>
        <time>2014-11-03T16:14:15Z</time>
      </trkpt>
      <trkpt lat="49.51507" lon="-1.5893">
        <ele>66.7</ele>
        <time>2014-11-03T16:14:22Z</time>
      </trkpt>
      <trkpt lat="49.51511" lon="-1.58917">
        <ele>66.3</ele>
        <time>2014-11-03T16:14:29Z</time>
      </trkpt>
      <trkpt lat="49.51517" lon="-1.58906">
        <ele>65.9</ele>
        <time>2014-11-03T16:14:37Z</time>
      </trkpt>
      <trkpt lat="49.51521" lon="-1.58892">
        <ele>65.7</ele>
        <time>2014-11-03T16:14:44Z</time>
      </trkpt>
      <trkpt lat="49.51526" lon="-1.58879">
        <ele>65.5</ele>
        <time>2014-11-03T16:14:50Z</time>
      </trkpt>
      <trkpt lat="49.5153" lon="-1.58865">
        <ele>65.3</ele>
        <time>2014-11-03T16:14:56Z</time>
      </trkpt>
      <trkpt lat="49.51534" lon="-1.58851">
        <ele>64.9</ele>
        <time>2014-11-03T16:15:03Z</time>
      </trkpt>
      <trkpt lat="49.51537" lon="-1.58837">
        <ele>64.5</ele>
        <time>2014-11-03T16:15:09Z</time>
      </trkpt>
      <trkpt lat="49.51542" lon="-1.58825">
        <ele>64.3</ele>
        <time>2014-11-03T16:15:17Z</time>
      </trkpt>
      <trkpt lat="49.51547" lon="-1.58813">
        <ele>63.5</ele>
        <time>2014-11-03T16:15:27Z</time>
      </trkpt>
      <trkpt lat="49.51552" lon="-1.58799">
        <ele>63.1</ele>
        <time>2014-11-03T16:15:34Z</time>
      </trkpt>
      <trkpt lat="49.51556" lon="-1.58785">
        <ele>62.6</ele>
        <time>2014-11-03T16:15:40Z</time>
      </trkpt>
      <trkpt lat="49.51561" lon="-1.58774">
        <ele>62.2</ele>
        <time>2014-11-03T16:15:47Z</time>
      </trkpt>
      <trkpt lat="49.51566" lon="-1.5876">
        <ele>62</ele>
        <time>2014-11-03T16:15:55Z</time>
      </trkpt>
      <trkpt lat="49.5157" lon="-1.58747">
        <ele>62</ele>
        <time>2014-11-03T16:16:02Z</time>
      </trkpt>
      <trkpt lat="49.51575" lon="-1.58735">
        <ele>61.5</ele>
        <time>2014-11-03T16:16:10Z</time>
      </trkpt>
      <trkpt lat="49.51582" lon="-1.58723">
        <ele>60.6</ele>
        <time>2014-11-03T16:16:19Z</time>
      </trkpt>
      <trkpt lat="49.51585" lon="-1.58708">
        <ele>60</ele>
        <time>2014-11-03T16:16:25Z</time>
      </trkpt>
      <trkpt lat="49.5159" lon="-1.58695">
        <ele>59.6</ele>
        <time>2014-11-03T16:16:32Z</time>
      </trkpt>
      <trkpt lat="49.51595" lon="-1.58682">
        <ele>59.4</ele>
        <time>2014-11-03T16:16:38Z</time>
      </trkpt>
      <trkpt lat="49.516" lon="-1.5867">
        <ele>58.5</ele>
        <time>2014-11-03T16:16:46Z</time>
      </trkpt>
      <trkpt lat="49.51605" lon="-1.58657">
        <ele>57.8</ele>
        <time>2014-11-03T16:16:53Z</time>
      </trkpt>
      <trkpt lat="49.5161" lon="-1.58646">
        <ele>57.6</ele>
        <time>2014-11-03T16:17:00Z</time>
      </trkpt>
      <trkpt lat="49.51615" lon="-1.58633">
        <ele>57.2</ele>
        <time>2014-11-03T16:17:07Z</time>
      </trkpt>
      <trkpt lat="49.51619" lon="-1.58621">
        <ele>56.9</ele>
        <time>2014-11-03T16:17:15Z</time>
      </trkpt>
      <trkpt lat="49.51624" lon="-1.58608">
        <ele>56.8</ele>
        <time>2014-11-03T16:17:23Z</time>
      </trkpt>
      <trkpt lat="49.51629" lon="-1.58595">
        <ele>56.1</ele>
        <time>2014-11-03T16:17:30Z</time>
      </trkpt>
      <trkpt lat="49.51634" lon="-1.58583">
        <ele>54.9</ele>
        <time>2014-11-03T16:17:39Z</time>
      </trkpt>
      <trkpt lat="49.5164" lon="-1.58571">
        <ele>54.5</ele>
        <time>2014-11-03T16:17:48Z</time>
      </trkpt>
      <trkpt lat="49.51646" lon="-1.58559">
        <ele>53.7</ele>
        <time>2014-11-03T16:17:57Z</time>
      </trkpt>
      <trkpt lat="49.51651" lon="-1.58546">
        <ele>53</ele>
        <time>2014-11-03T16:18:03Z</time>
      </trkpt>
      <trkpt lat="49.51656" lon="-1.58531">
        <ele>51.3</ele>
        <time>2014-11-03T16:18:11Z</time>
      </trkpt>
      <trkpt lat="49.51656" lon="-1.58517">
        <ele>52</ele>
        <time>2014-11-03T16:18:20Z</time>
      </trkpt>
      <trkpt lat="49.5166" lon="-1.58504">
        <ele>51.2</ele>
        <time>2014-11-03T16:18:58Z</time>
      </trkpt>
      <trkpt lat="49.51663" lon="-1.5849">
        <ele>50.9</ele>
        <time>2014-11-03T16:19:07Z</time>
      </trkpt>
      <trkpt lat="49.51669" lon="-1.58479">
        <ele>50.2</ele>
        <time>2014-11-03T16:19:15Z</time>
      </trkpt>
      <trkpt lat="49.51674" lon="-1.58466">
        <ele>49</ele>
        <time>2014-11-03T16:19:23Z</time>
      </trkpt>
      <trkpt lat="49.5168" lon="-1.58455">
        <ele>48.7</ele>
        <time>2014-11-03T16:19:31Z</time>
      </trkpt>
      <trkpt lat="49.51684" lon="-1.58442">
        <ele>48.1</ele>
        <time>2014-11-03T16:19:40Z</time>
      </trkpt>
      <trkpt lat="49.51689" lon="-1.5843">
        <ele>47.6</ele>
        <time>2014-11-03T16:19:47Z</time>
      </trkpt>
      <trkpt lat="49.51694" lon="-1.58416">
        <ele>47.1</ele>
        <time>2014-11-03T16:19:55Z</time>
      </trkpt>
      <trkpt lat="49.51701" lon="-1.58406">
        <ele>46.1</ele>
        <time>2014-11-03T16:20:02Z</time>
      </trkpt>
      <trkpt lat="49.5171" lon="-1.58405">
        <ele>45.6</ele>
        <time>2014-11-03T16:20:10Z</time>
      </trkpt>
      <trkpt lat="49.51717" lon="-1.58416">
        <ele>46.1</ele>
        <time>2014-11-03T16:20:20Z</time>
      </trkpt>
      <trkpt lat="49.51725" lon="-1.58425">
        <ele>46.5</ele>
        <time>2014-11-03T16:20:28Z</time>
      </trkpt>
      <trkpt lat="49.51733" lon="-1.58433">
        <ele>46.9</ele>
        <time>2014-11-03T16:20:35Z</time>
      </trkpt>
      <trkpt lat="49.5174" lon="-1.58443">
        <ele>47</ele>
        <time>2014-11-03T16:20:44Z</time>
      </trkpt>
      <trkpt lat="49.51748" lon="-1.58451">
        <ele>47.2</ele>
        <time>2014-11-03T16:20:54Z</time>
      </trkpt>
      <trkpt lat="49.51756" lon="-1.58461">
        <ele>47.4</ele>
        <time>2014-11-03T16:21:03Z</time>
      </trkpt>
      <trkpt lat="49.51764" lon="-1.58471">
        <ele>47.6</ele>
        <time>2014-11-03T16:21:11Z</time>
      </trkpt>
      <trkpt lat="49.51772" lon="-1.5848">
        <ele>48</ele>
        <time>2014-11-03T16:21:18Z</time>
      </trkpt>
      <trkpt lat="49.5178" lon="-1.58488">
        <ele>48.3</ele>
        <time>2014-11-03T16:21:26Z</time>
      </trkpt>
      <trkpt lat="49.51788" lon="-1.58496">
        <ele>48.4</ele>
        <time>2014-11-03T16:21:35Z</time>
      </trkpt>
      <trkpt lat="49.51797" lon="-1.58504">
        <ele>48.6</ele>
        <time>2014-11-03T16:21:41Z</time>
      </trkpt>
      <trkpt lat="49.51805" lon="-1.58513">
        <ele>46.7</ele>
        <time>2014-11-03T16:21:49Z</time>
      </trkpt>
      <trkpt lat="49.51813" lon="-1.5852">
        <ele>49</ele>
        <time>2014-11-03T16:21:56Z</time>
      </trkpt>
      <trkpt lat="49.51819" lon="-1.5853">
        <ele>49</ele>
        <time>2014-11-03T16:22:04Z</time>
      </trkpt>
      <trkpt lat="49.51827" lon="-1.58539">
        <ele>49.3</ele>
        <time>2014-11-03T16:22:14Z</time>
      </trkpt>
      <trkpt lat="49.51835" lon="-1.58549">
        <ele>49.7</ele>
        <time>2014-11-03T16:22:21Z</time>
      </trkpt>
      <trkpt lat="49.51842" lon="-1.58559">
        <ele>50.4</ele>
        <time>2014-11-03T16:22:29Z</time>
      </trkpt>
      <trkpt lat="49.51849" lon="-1.58569">
        <ele>51.2</ele>
        <time>2014-11-03T16:22:39Z</time>
      </trkpt>
      <trkpt lat="49.51855" lon="-1.58579">
        <ele>51.9</ele>
        <time>2014-11-03T16:22:45Z</time>
      </trkpt>
      <trkpt lat="49.51862" lon="-1.58591">
        <ele>52.5</ele>
        <time>2014-11-03T16:22:53Z</time>
      </trkpt>
      <trkpt lat="49.51869" lon="-1.58599">
        <ele>53</ele>
        <time>2014-11-03T16:23:01Z</time>
      </trkpt>
      <trkpt lat="49.51877" lon="-1.58608">
        <ele>53.8</ele>
        <time>2014-11-03T16:23:11Z</time>
      </trkpt>
      <trkpt lat="49.51885" lon="-1.58617">
        <ele>54</ele>
        <time>2014-11-03T16:23:19Z</time>
      </trkpt>
      <trkpt lat="49.51892" lon="-1.58627">
        <ele>54.5</ele>
        <time>2014-11-03T16:23:26Z</time>
      </trkpt>
      <trkpt lat="49.519" lon="-1.58634">
        <ele>54.8</ele>
        <time>2014-11-03T16:23:32Z</time>
      </trkpt>
      <trkpt lat="49.51908" lon="-1.58642">
        <ele>54.6</ele>
        <time>2014-11-03T16:23:39Z</time>
      </trkpt>
      <trkpt lat="49.51916" lon="-1.5865">
        <ele>55.1</ele>
        <time>2014-11-03T16:23:45Z</time>
      </trkpt>
      <trkpt lat="49.51922" lon="-1.58662">
        <ele>55.2</ele>
        <time>2014-11-03T16:23:51Z</time>
      </trkpt>
      <trkpt lat="49.51928" lon="-1.58674">
        <ele>55.5</ele>
        <time>2014-11-03T16:23:57Z</time>
      </trkpt>
      <trkpt lat="49.51933" lon="-1.58685">
        <ele>55.5</ele>
        <time>2014-11-03T16:24:03Z</time>
      </trkpt>
      <trkpt lat="49.51939" lon="-1.58697">
        <ele>55.8</ele>
        <time>2014-11-03T16:24:10Z</time>
      </trkpt>
      <trkpt lat="49.51946" lon="-1.58708">
        <ele>56</ele>
        <time>2014-11-03T16:24:17Z</time>
      </trkpt>
      <trkpt lat="49.51953" lon="-1.58718">
        <ele>55.7</ele>
        <time>2014-11-03T16:24:26Z</time>
      </trkpt>
      <trkpt lat="49.51961" lon="-1.58728">
        <ele>55.7</ele>
        <time>2014-11-03T16:24:34Z</time>
      </trkpt>
      <trkpt lat="49.51968" lon="-1.58738">
        <ele>55.2</ele>
        <time>2014-11-03T16:24:41Z</time>
      </trkpt>
      <trkpt lat="49.51976" lon="-1.58745">
        <ele>54.6</ele>
        <time>2014-11-03T16:24:49Z</time>
      </trkpt>
      <trkpt lat="49.51983" lon="-1.58755">
        <ele>54</ele>
        <time>2014-11-03T16:24:57Z</time>
      </trkpt>
      <trkpt lat="49.5199" lon="-1.58765">
        <ele>53.4</ele>
        <time>2014-11-03T16:25:03Z</time>
      </trkpt>
      <trkpt lat="49.51997" lon="-1.58776">
        <ele>53.1</ele>
        <time>2014-11-03T16:25:11Z</time>
      </trkpt>
      <trkpt lat="49.52002" lon="-1.5879">
        <ele>52.4</ele>
        <time>2014-11-03T16:25:20Z</time>
      </trkpt>
      <trkpt lat="49.52008" lon="-1.58801">
        <ele>51.8</ele>
        <time>2014-11-03T16:25:29Z</time>
      </trkpt>
      <trkpt lat="49.52012" lon="-1.58814">
        <ele>50</ele>
        <time>2014-11-03T16:25:37Z</time>
      </trkpt>
      <trkpt lat="49.52016" lon="-1.58827">
        <ele>49.5</ele>
        <time>2014-11-03T16:25:45Z</time>
      </trkpt>
      <trkpt lat="49.52019" lon="-1.58841">
        <ele>48.7</ele>
        <time>2014-11-03T16:25:55Z</time>
      </trkpt>
      <trkpt lat="49.52022" lon="-1.58856">
        <ele>46.9</ele>
        <time>2014-11-03T16:26:04Z</time>
      </trkpt>
      <trkpt lat="49.52024" lon="-1.5887">
        <ele>46.6</ele>
        <time>2014-11-03T16:26:12Z</time>
      </trkpt>
      <trkpt lat="49.52028" lon="-1.58884">
        <ele>45.5</ele>
        <time>2014-11-03T16:26:20Z</time>
      </trkpt>
      <trkpt lat="49.5203" lon="-1.58897">
        <ele>44.5</ele>
        <time>2014-11-03T16:26:29Z</time>
      </trkpt>
      <trkpt lat="49.52033" lon="-1.58912">
        <ele>43.3</ele>
        <time>2014-11-03T16:26:37Z</time>
      </trkpt>
      <trkpt lat="49.52036" lon="-1.58926">
        <ele>43.3</ele>
        <time>2014-11-03T16:26:43Z</time>
      </trkpt>
      <trkpt lat="49.52038" lon="-1.58941">
        <ele>42.8</ele>
        <time>2014-11-03T16:26:50Z</time>
      </trkpt>
      <trkpt lat="49.5204" lon="-1.58956">
        <ele>42.5</ele>
        <time>2014-11-03T16:26:56Z</time>
      </trkpt>
      <trkpt lat="49.52043" lon="-1.5897">
        <ele>41.8</ele>
        <time>2014-11-03T16:27:04Z</time>
      </trkpt>
      <trkpt lat="49.52047" lon="-1.58984">
        <ele>41.4</ele>
        <time>2014-11-03T16:27:13Z</time>
      </trkpt>
      <trkpt lat="49.52048" lon="-1.58998">
        <ele>41.5</ele>
        <time>2014-11-03T16:27:19Z</time>
      </trkpt>
      <trkpt lat="49.52048" lon="-1.59013">
        <ele>40.8</ele>
        <time>2014-11-03T16:27:26Z</time>
      </trkpt>
      <trkpt lat="49.5205" lon="-1.59029">
        <ele>40.8</ele>
        <time>2014-11-03T16:27:32Z</time>
      </trkpt>
      <trkpt lat="49.52051" lon="-1.59044">
        <ele>40.7</ele>
        <time>2014-11-03T16:27:40Z</time>
      </trkpt>
      <trkpt lat="49.52053" lon="-1.59058">
        <ele>40.4</ele>
        <time>2014-11-03T16:27:47Z</time>
      </trkpt>
      <trkpt lat="49.52053" lon="-1.59074">
        <ele>39.7</ele>
        <time>2014-11-03T16:28:03Z</time>
      </trkpt>
      <trkpt lat="49.52056" lon="-1.59088">
        <ele>39.4</ele>
        <time>2014-11-03T16:28:09Z</time>
      </trkpt>
      <trkpt lat="49.52059" lon="-1.59102">
        <ele>39.9</ele>
        <time>2014-11-03T16:28:15Z</time>
      </trkpt>
      <trkpt lat="49.52061" lon="-1.59117">
        <ele>40.3</ele>
        <time>2014-11-03T16:28:21Z</time>
      </trkpt>
      <trkpt lat="49.52061" lon="-1.59131">
        <ele>40.4</ele>
        <time>2014-11-03T16:28:26Z</time>
      </trkpt>
      <trkpt lat="49.52063" lon="-1.59145">
        <ele>41.3</ele>
        <time>2014-11-03T16:28:32Z</time>
      </trkpt>
      <trkpt lat="49.52066" lon="-1.59158">
        <ele>41.9</ele>
        <time>2014-11-03T16:28:37Z</time>
      </trkpt>
      <trkpt lat="49.52074" lon="-1.59167">
        <ele>42.5</ele>
        <time>2014-11-03T16:28:43Z</time>
      </trkpt>
      <trkpt lat="49.52083" lon="-1.59171">
        <ele>42.6</ele>
        <time>2014-11-03T16:28:49Z</time>
      </trkpt>
      <trkpt lat="49.52092" lon="-1.59168">
        <ele>42.2</ele>
        <time>2014-11-03T16:29:02Z</time>
      </trkpt>
      <trkpt lat="49.52101" lon="-1.59163">
        <ele>41.7</ele>
        <time>2014-11-03T16:29:08Z</time>
      </trkpt>
      <trkpt lat="49.5211" lon="-1.5916">
        <ele>41.3</ele>
        <time>2014-11-03T16:29:14Z</time>
      </trkpt>
      <trkpt lat="49.52121" lon="-1.59155">
        <ele>40.7</ele>
        <time>2014-11-03T16:29:19Z</time>
      </trkpt>
      <trkpt lat="49.52131" lon="-1.5915">
        <ele>39.7</ele>
        <time>2014-11-03T16:29:25Z</time>
      </trkpt>
      <trkpt lat="49.52142" lon="-1.59147">
        <ele>39.5</ele>
        <time>2014-11-03T16:29:30Z</time>
      </trkpt>
      <trkpt lat="49.52151" lon="-1.59143">
        <ele>38.5</ele>
        <time>2014-11-03T16:29:38Z</time>
      </trkpt>
      <trkpt lat="49.52159" lon="-1.59137">
        <ele>37.4</ele>
        <time>2014-11-03T16:30:18Z</time>
      </trkpt>
      <trkpt lat="49.52168" lon="-1.59133">
        <ele>37</ele>
        <time>2014-11-03T16:30:24Z</time>
      </trkpt>
      <trkpt lat="49.52177" lon="-1.59129">
        <ele>37</ele>
        <time>2014-11-03T16:30:32Z</time>
      </trkpt>
      <trkpt lat="49.52186" lon="-1.59124">
        <ele>36.6</ele>
        <time>2014-11-03T16:30:40Z</time>
      </trkpt>
      <trkpt lat="49.52195" lon="-1.59118">
        <ele>36.4</ele>
        <time>2014-11-03T16:30:48Z</time>
      </trkpt>
      <trkpt lat="49.52204" lon="-1.59113">
        <ele>36.2</ele>
        <time>2014-11-03T16:30:57Z</time>
      </trkpt>
      <trkpt lat="49.52213" lon="-1.59108">
        <ele>36</ele>
        <time>2014-11-03T16:31:05Z</time>
      </trkpt>
      <trkpt lat="49.52222" lon="-1.59104">
        <ele>36.2</ele>
        <time>2014-11-03T16:31:12Z</time>
      </trkpt>
      <trkpt lat="49.52231" lon="-1.59097">
        <ele>36.2</ele>
        <time>2014-11-03T16:31:20Z</time>
      </trkpt>
      <trkpt lat="49.5224" lon="-1.59093">
        <ele>36.4</ele>
        <time>2014-11-03T16:31:27Z</time>
      </trkpt>
      <trkpt lat="49.52249" lon="-1.59088">
        <ele>36.3</ele>
        <time>2014-11-03T16:31:35Z</time>
      </trkpt>
      <trkpt lat="49.52259" lon="-1.59085">
        <ele>36.7</ele>
        <time>2014-11-03T16:31:42Z</time>
      </trkpt>
      <trkpt lat="49.52268" lon="-1.59083">
        <ele>37.2</ele>
        <time>2014-11-03T16:31:49Z</time>
      </trkpt>
      <trkpt lat="49.52278" lon="-1.59082">
        <ele>37.4</ele>
        <time>2014-11-03T16:31:57Z</time>
      </trkpt>
      <trkpt lat="49.52288" lon="-1.59082">
        <ele>37.9</ele>
        <time>2014-11-03T16:32:05Z</time>
      </trkpt>
      <trkpt lat="49.52298" lon="-1.59081">
        <ele>38.3</ele>
        <time>2014-11-03T16:32:14Z</time>
      </trkpt>
      <trkpt lat="49.52307" lon="-1.59082">
        <ele>38.9</ele>
        <time>2014-11-03T16:32:21Z</time>
      </trkpt>
      <trkpt lat="49.52316" lon="-1.59081">
        <ele>39.5</ele>
        <time>2014-11-03T16:32:30Z</time>
      </trkpt>
      <trkpt lat="49.52326" lon="-1.59082">
        <ele>39.7</ele>
        <time>2014-11-03T16:32:38Z</time>
      </trkpt>
      <trkpt lat="49.52335" lon="-1.59083">
        <ele>40.3</ele>
        <time>2014-11-03T16:32:45Z</time>
      </trkpt>
      <trkpt lat="49.52345" lon="-1.59085">
        <ele>40.9</ele>
        <time>2014-11-03T16:32:53Z</time>
      </trkpt>
      <trkpt lat="49.52355" lon="-1.59088">
        <ele>41.4</ele>
        <time>2014-11-03T16:33:02Z</time>
      </trkpt>
      <trkpt lat="49.52364" lon="-1.59091">
        <ele>41.9</ele>
        <time>2014-11-03T16:33:10Z</time>
      </trkpt>
      <trkpt lat="49.52373" lon="-1.59096">
        <ele>42.6</ele>
        <time>2014-11-03T16:33:18Z</time>
      </trkpt>
      <trkpt lat="49.52382" lon="-1.59101">
        <ele>43.1</ele>
        <time>2014-11-03T16:33:26Z</time>
      </trkpt>
      <trkpt lat="49.52392" lon="-1.59106">
        <ele>44</ele>
        <time>2014-11-03T16:33:38Z</time>
      </trkpt>
      <trkpt lat="49.52401" lon="-1.59111">
        <ele>44.4</ele>
        <time>2014-11-03T16:33:47Z</time>
      </trkpt>
      <trkpt lat="49.5241" lon="-1.59115">
        <ele>44.4</ele>
        <time>2014-11-03T16:33:55Z</time>
      </trkpt>
      <trkpt lat="49.52419" lon="-1.5912">
        <ele>44.5</ele>
        <time>2014-11-03T16:34:04Z</time>
      </trkpt>
      <trkpt lat="49.5243" lon="-1.59123">
        <ele>44</ele>
        <time>2014-11-03T16:34:11Z</time>
      </trkpt>
      <trkpt lat="49.52439" lon="-1.59126">
        <ele>44.3</ele>
        <time>2014-11-03T16:34:18Z</time>
      </trkpt>
      <trkpt lat="49.52449" lon="-1.59131">
        <ele>44</ele>
        <time>2014-11-03T16:34:26Z</time>
      </trkpt>
      <trkpt lat="49.52458" lon="-1.59136">
        <ele>44</ele>
        <time>2014-11-03T16:34:34Z</time>
      </trkpt>
      <trkpt lat="49.52467" lon="-1.59143">
        <ele>43.6</ele>
        <time>2014-11-03T16:34:43Z</time>
      </trkpt>
      <trkpt lat="49.52477" lon="-1.59149">
        <ele>43.2</ele>
        <time>2014-11-03T16:34:51Z</time>
      </trkpt>
      <trkpt lat="49.52485" lon="-1.59156">
        <ele>42.5</ele>
        <time>2014-11-03T16:34:57Z</time>
      </trkpt>
      <trkpt lat="49.52493" lon="-1.59163">
        <ele>42</ele>
        <time>2014-11-03T16:35:04Z</time>
      </trkpt>
      <trkpt lat="49.52499" lon="-1.59175">
        <ele>41.7</ele>
        <time>2014-11-03T16:35:11Z</time>
      </trkpt>
      <trkpt lat="49.52506" lon="-1.59185">
        <ele>41.2</ele>
        <time>2014-11-03T16:35:18Z</time>
      </trkpt>
      <trkpt lat="49.52513" lon="-1.59196">
        <ele>40.8</ele>
        <time>2014-11-03T16:35:25Z</time>
      </trkpt>
      <trkpt lat="49.5252" lon="-1.59207">
        <ele>40.4</ele>
        <time>2014-11-03T16:35:32Z</time>
      </trkpt>
      <trkpt lat="49.52526" lon="-1.59217">
        <ele>39.9</ele>
        <time>2014-11-03T16:35:39Z</time>
      </trkpt>
      <trkpt lat="49.52533" lon="-1.59228">
        <ele>39.5</ele>
        <time>2014-11-03T16:35:45Z</time>
      </trkpt>
      <trkpt lat="49.52539" lon="-1.59239">
        <ele>39</ele>
        <time>2014-11-03T16:35:53Z</time>
      </trkpt>
      <trkpt lat="49.52544" lon="-1.5925">
        <ele>39</ele>
        <time>2014-11-03T16:36:00Z</time>
      </trkpt>
      <trkpt lat="49.5255" lon="-1.59261">
        <ele>39</ele>
        <time>2014-11-03T16:36:06Z</time>
      </trkpt>
      <trkpt lat="49.52558" lon="-1.59271">
        <ele>38.6</ele>
        <time>2014-11-03T16:36:13Z</time>
      </trkpt>
      <trkpt lat="49.52565" lon="-1.59283">
        <ele>38.5</ele>
        <time>2014-11-03T16:36:20Z</time>
      </trkpt>
      <trkpt lat="49.5257" lon="-1.59295">
        <ele>38.7</ele>
        <time>2014-11-03T16:36:27Z</time>
      </trkpt>
      <trkpt lat="49.52578" lon="-1.59302">
        <ele>38.5</ele>
        <time>2014-11-03T16:36:33Z</time>
      </trkpt>
      <trkpt lat="49.52586" lon="-1.5931">
        <ele>38.3</ele>
        <time>2014-11-03T16:36:42Z</time>
      </trkpt>
      <trkpt lat="49.52596" lon="-1.59311">
        <ele>38.4</ele>
        <time>2014-11-03T16:36:50Z</time>
      </trkpt>
      <trkpt lat="49.52606" lon="-1.59309">
        <ele>38.9</ele>
        <time>2014-11-03T16:36:56Z</time>
      </trkpt>
      <trkpt lat="49.52615" lon="-1.59306">
        <ele>34.7</ele>
        <time>2014-11-03T16:37:02Z</time>
      </trkpt>
      <trkpt lat="49.52624" lon="-1.59301">
        <ele>39.6</ele>
        <time>2014-11-03T16:37:09Z</time>
      </trkpt>
      <trkpt lat="49.52634" lon="-1.59298">
        <ele>39.6</ele>
        <time>2014-11-03T16:37:17Z</time>
      </trkpt>
      <trkpt lat="49.52643" lon="-1.59292">
        <ele>39.8</ele>
        <time>2014-11-03T16:37:25Z</time>
      </trkpt>
      <trkpt lat="49.5265" lon="-1.59283">
        <ele>39.4</ele>
        <time>2014-11-03T16:37:33Z</time>
      </trkpt>
      <trkpt lat="49.52658" lon="-1.59276">
        <ele>40</ele>
        <time>2014-11-03T16:37:40Z</time>
      </trkpt>
      <trkpt lat="49.52667" lon="-1.59272">
        <ele>40.1</ele>
        <time>2014-11-03T16:37:46Z</time>
      </trkpt>
      <trkpt lat="49.52676" lon="-1.59267">
        <ele>41.7</ele>
        <time>2014-11-03T16:37:54Z</time>
      </trkpt>
      <trkpt lat="49.52685" lon="-1.59266">
        <ele>43.3</ele>
        <time>2014-11-03T16:38:01Z</time>
      </trkpt>
      <trkpt lat="49.52694" lon="-1.59265">
        <ele>44.8</ele>
        <time>2014-11-03T16:38:08Z</time>
      </trkpt>
      <trkpt lat="49.52699" lon="-1.59278">
        <ele>45.6</ele>
        <time>2014-11-03T16:38:20Z</time>
      </trkpt>
      <trkpt lat="49.52707" lon="-1.59283">
        <ele>45.9</ele>
        <time>2014-11-03T16:38:32Z</time>
      </trkpt>
      <trkpt lat="49.52709" lon="-1.59283">
        <ele>25.6</ele>
        <time>2014-11-03T16:38:54Z</time>
      </trkpt>
      <trkpt lat="49.52709" lon="-1.59283">
        <ele>49</ele>
        <time>2014-11-03T16:39:19Z</time>
      </trkpt>
    </trkseg>
  </trk>
</gpx>